<?xml version='1.0' encoding='UTF-8'?><gpx version="1.1" creator="JPX - https://github.com/jenetics/jpx" xmlns="http://www.topografix.com/GPX/1/1"><trk><trkseg><trkpt lat="44.837673430605385" lon="8.980038426892397"><ele>274.2</ele><time>2026-04-19T14:48:05.001Z</time></trkpt><trkpt lat="44.837661450948204" lon="8.979895821044243"><ele>275.4</ele><time>2026-04-19T14:48:08.001Z</time></trkpt><trkpt lat="44.83760618334696" lon="8.979741592333886"><ele>276.59999999999997</ele><time>2026-04-19T14:48:11.001Z</time></trkpt><trkpt lat="44.83757825084762" lon="8.979608444882624"><ele>277.8</ele><time>2026-04-19T14:48:13.001Z</time></trkpt><trkpt lat="44.83756592329333" lon="8.979492353450643"><ele>279.0</ele><time>2026-04-19T14:48:15.002Z</time></trkpt><trkpt lat="44.83755420124237" lon="8.979402978060993"><ele>276.3333333333333</ele><time>2026-04-19T14:48:17.002Z</time></trkpt><trkpt lat="44.83751905531679" lon="8.9793105645264"><ele>273.6666666666667</ele><time>2026-04-19T14:48:19.002Z</time></trkpt><trkpt lat="44.83746737772415" lon="8.97922488934292"><ele>271.0</ele><time>2026-04-19T14:48:21.002Z</time></trkpt><trkpt lat="44.83741538508054" lon="8.97915403614567"><ele>268.33333333333337</ele><time>2026-04-19T14:48:23.002Z</time></trkpt><trkpt lat="44.83734259573629" lon="8.979065788292438"><ele>265.6666666666667</ele><time>2026-04-19T14:48:25.002Z</time></trkpt><trkpt lat="44.837279682542196" lon="8.978996304231085"><ele>263.0</ele><time>2026-04-19T14:48:27.001Z</time></trkpt><trkpt lat="44.83723828339178" lon="8.978910261649137"><ele>263.0</ele><time>2026-04-19T14:48:29.001Z</time></trkpt><trkpt lat="44.83720605574717" lon="8.978792786764505"><ele>263.0</ele><time>2026-04-19T14:48:31.001Z</time></trkpt><trkpt lat="44.83717515780649" lon="8.978666388755844"><ele>263.0</ele><time>2026-04-19T14:48:33.001Z</time></trkpt><trkpt lat="44.837133305392186" lon="8.978550387721684"><ele>263.0</ele><time>2026-04-19T14:48:35.001Z</time></trkpt><trkpt lat="44.83709270127129" lon="8.978423117583393"><ele>263.0</ele><time>2026-04-19T14:48:37.001Z</time></trkpt><trkpt lat="44.837054230837005" lon="8.97830013266708"><ele>264.1666666666667</ele><time>2026-04-19T14:48:39.001Z</time></trkpt><trkpt lat="44.83702763423973" lon="8.978154120346977"><ele>265.33333333333337</ele><time>2026-04-19T14:48:41.001Z</time></trkpt><trkpt lat="44.837019509646915" lon="8.97806588828062"><ele>266.5</ele><time>2026-04-19T14:48:42Z</time></trkpt><trkpt lat="44.83700910633415" lon="8.977974239641593"><ele>267.6666666666667</ele><time>2026-04-19T14:48:43Z</time></trkpt><trkpt lat="44.83699656302715" lon="8.977856499971297"><ele>268.8333333333333</ele><time>2026-04-19T14:48:45Z</time></trkpt><trkpt lat="44.83698398367341" lon="8.977729001034778"><ele>270.0</ele><time>2026-04-19T14:48:57Z</time></trkpt><trkpt lat="44.836967458814705" lon="8.977592561279653"><ele>270.3333333333333</ele><time>2026-04-19T14:48:59Z</time></trkpt><trkpt lat="44.83695029766573" lon="8.977469783968917"><ele>270.6666666666667</ele><time>2026-04-19T14:49:01Z</time></trkpt><trkpt lat="44.83693247678231" lon="8.977329943144163"><ele>271.0</ele><time>2026-04-19T14:49:03Z</time></trkpt><trkpt lat="44.836928710363495" lon="8.977191854686156"><ele>271.33333333333337</ele><time>2026-04-19T14:49:05Z</time></trkpt><trkpt lat="44.83694755792118" lon="8.977066258627374"><ele>271.6666666666667</ele><time>2026-04-19T14:49:07Z</time></trkpt><trkpt lat="44.83697587942669" lon="8.976975580422609"><ele>272.0</ele><time>2026-04-19T14:49:10Z</time></trkpt><trkpt lat="44.83691755778501" lon="8.976920193949221"><ele>272.0</ele><time>2026-04-19T14:49:16Z</time></trkpt><trkpt lat="44.83682605409943" lon="8.976932571120221"><ele>272.0</ele><time>2026-04-19T14:49:18Z</time></trkpt><trkpt lat="44.836718603691786" lon="8.976922518869314"><ele>272.0</ele><time>2026-04-19T14:49:20Z</time></trkpt><trkpt lat="44.83658009284741" lon="8.976893360044405"><ele>272.0</ele><time>2026-04-19T14:49:22Z</time></trkpt><trkpt lat="44.83651686534806" lon="8.976879963982519"><ele>272.0</ele><time>2026-04-19T14:49:23Z</time></trkpt><trkpt lat="44.8364513860311" lon="8.976878957144953"><ele>270.2</ele><time>2026-04-19T14:49:24Z</time></trkpt><trkpt lat="44.836382824792054" lon="8.976887041452532"><ele>268.4</ele><time>2026-04-19T14:49:25Z</time></trkpt><trkpt lat="44.83631284455278" lon="8.976901964184766"><ele>266.6</ele><time>2026-04-19T14:49:25.999Z</time></trkpt><trkpt lat="44.83617514325073" lon="8.976948410200134"><ele>264.8</ele><time>2026-04-19T14:49:27.999Z</time></trkpt><trkpt lat="44.83605292267117" lon="8.976982859911198"><ele>263.0</ele><time>2026-04-19T14:49:29.999Z</time></trkpt><trkpt lat="44.83597405566713" lon="8.977011297108806"><ele>261.1428571428571</ele><time>2026-04-19T14:49:30.999Z</time></trkpt><trkpt lat="44.835896216348985" lon="8.977031394724042"><ele>259.2857142857143</ele><time>2026-04-19T14:49:31.999Z</time></trkpt><trkpt lat="44.835821690869196" lon="8.977042429441846"><ele>257.42857142857144</ele><time>2026-04-19T14:49:32.999Z</time></trkpt><trkpt lat="44.83575033962577" lon="8.977060084482066"><ele>255.57142857142856</ele><time>2026-04-19T14:49:33.999Z</time></trkpt><trkpt lat="44.83568617151415" lon="8.977081479140477"><ele>253.71428571428572</ele><time>2026-04-19T14:49:34.999Z</time></trkpt><trkpt lat="44.835623291858916" lon="8.977115177731989"><ele>251.85714285714283</ele><time>2026-04-19T14:49:35.999Z</time></trkpt><trkpt lat="44.83556077098968" lon="8.977173221978212"><ele>250.0</ele><time>2026-04-19T14:49:36.999Z</time></trkpt><trkpt lat="44.83550043827477" lon="8.977226357684755"><ele>249.99999999999997</ele><time>2026-04-19T14:49:37.999Z</time></trkpt><trkpt lat="44.8354410698333" lon="8.977281348563348"><ele>250.0</ele><time>2026-04-19T14:49:38.999Z</time></trkpt><trkpt lat="44.835377576267746" lon="8.977340897860048"><ele>250.0</ele><time>2026-04-19T14:49:39.999Z</time></trkpt><trkpt lat="44.83531228075998" lon="8.977404490867976"><ele>250.0</ele><time>2026-04-19T14:49:40.999Z</time></trkpt><trkpt lat="44.83524265054099" lon="8.977461880957058"><ele>249.99999999999997</ele><time>2026-04-19T14:49:41.999Z</time></trkpt><trkpt lat="44.835169979353765" lon="8.977506892175718"><ele>250.0</ele><time>2026-04-19T14:49:42.999Z</time></trkpt><trkpt lat="44.835096051600644" lon="8.977548808827063"><ele>246.85714285714283</ele><time>2026-04-19T14:49:43.999Z</time></trkpt><trkpt lat="44.835021734263194" lon="8.977580738847976"><ele>243.71428571428572</ele><time>2026-04-19T14:49:44.999Z</time></trkpt><trkpt lat="44.83494953710877" lon="8.977602690124293"><ele>240.57142857142856</ele><time>2026-04-19T14:49:45.999Z</time></trkpt><trkpt lat="44.83488201593647" lon="8.977625716677279"><ele>237.42857142857142</ele><time>2026-04-19T14:49:46.999Z</time></trkpt><trkpt lat="44.83481888316804" lon="8.977631776659326"><ele>234.28571428571428</ele><time>2026-04-19T14:49:47.999Z</time></trkpt><trkpt lat="44.83475378718775" lon="8.977635955189848"><ele>231.14285714285714</ele><time>2026-04-19T14:49:48.999Z</time></trkpt><trkpt lat="44.834687151684655" lon="8.977638972227691"><ele>228.0</ele><time>2026-04-19T14:49:49.999Z</time></trkpt><trkpt lat="44.83461256166539" lon="8.977664137899831"><ele>228.0</ele><time>2026-04-19T14:49:50.999Z</time></trkpt><trkpt lat="44.834535478793526" lon="8.977686829905261"><ele>227.99999999999997</ele><time>2026-04-19T14:49:51.999Z</time></trkpt><trkpt lat="44.834458622066535" lon="8.977696785834095"><ele>228.0</ele><time>2026-04-19T14:49:52.999Z</time></trkpt><trkpt lat="44.834384174472994" lon="8.977706599697383"><ele>228.0</ele><time>2026-04-19T14:49:53.999Z</time></trkpt><trkpt lat="44.83431294331171" lon="8.977720831075436"><ele>227.99999999999997</ele><time>2026-04-19T14:49:54.999Z</time></trkpt><trkpt lat="44.834237484264925" lon="8.977733270407958"><ele>228.0</ele><time>2026-04-19T14:49:55.999Z</time></trkpt><trkpt lat="44.83417506312156" lon="8.97774484583035"><ele>228.0</ele><time>2026-04-19T14:49:56.999Z</time></trkpt><trkpt lat="44.83408547046819" lon="8.977755950454252"><ele>226.0</ele><time>2026-04-19T14:49:58.999Z</time></trkpt><trkpt lat="44.834000890875465" lon="8.977766954340295"><ele>224.0</ele><time>2026-04-19T14:50:01.999Z</time></trkpt><trkpt lat="44.833899970752626" lon="8.97778106062822"><ele>222.0</ele><time>2026-04-19T14:50:03.999Z</time></trkpt><trkpt lat="44.83378978193493" lon="8.97780374969498"><ele>220.0</ele><time>2026-04-19T14:50:05.999Z</time></trkpt><trkpt lat="44.83371753939186" lon="8.977818083532435"><ele>218.0</ele><time>2026-04-19T14:50:06.999Z</time></trkpt><trkpt lat="44.833634540674986" lon="8.977834378122186"><ele>218.00000000000003</ele><time>2026-04-19T14:50:07.999Z</time></trkpt><trkpt lat="44.83355601632592" lon="8.97785671331506"><ele>218.0</ele><time>2026-04-19T14:50:08.999Z</time></trkpt><trkpt lat="44.833475886854515" lon="8.977886940770835"><ele>218.0</ele><time>2026-04-19T14:50:09.999Z</time></trkpt><trkpt lat="44.83339791160963" lon="8.977931761886715"><ele>218.0</ele><time>2026-04-19T14:50:10.999Z</time></trkpt><trkpt lat="44.8332921513998" lon="8.978027879065468"><ele>218.00000000000003</ele><time>2026-04-19T14:50:12.999Z</time></trkpt><trkpt lat="44.83324568367914" lon="8.978100826643852"><ele>218.0</ele><time>2026-04-19T14:50:13.999Z</time></trkpt><trkpt lat="44.83320312685482" lon="8.978181916800247"><ele>216.8</ele><time>2026-04-19T14:50:14.999Z</time></trkpt><trkpt lat="44.83315562381712" lon="8.978271082430751"><ele>215.60000000000002</ele><time>2026-04-19T14:50:15.999Z</time></trkpt><trkpt lat="44.83306995066957" lon="8.97836716416733"><ele>214.39999999999998</ele><time>2026-04-19T14:50:17.999Z</time></trkpt><trkpt lat="44.83296622366804" lon="8.978411556620047"><ele>213.2</ele><time>2026-04-19T14:50:19.999Z</time></trkpt><trkpt lat="44.83287230043337" lon="8.978472242574911"><ele>212.0</ele><time>2026-04-19T14:50:22.001Z</time></trkpt><trkpt lat="44.83278258400678" lon="8.978514585073917"><ele>212.00000000000003</ele><time>2026-04-19T14:50:24.001Z</time></trkpt><trkpt lat="44.83268517925028" lon="8.978474009684811"><ele>212.0</ele><time>2026-04-19T14:50:26.001Z</time></trkpt><trkpt lat="44.83260623020509" lon="8.978455275257023"><ele>212.0</ele><time>2026-04-19T14:50:27.001Z</time></trkpt><trkpt lat="44.83254332002109" lon="8.978433912311566"><ele>212.0</ele><time>2026-04-19T14:50:28.001Z</time></trkpt><trkpt lat="44.832473592530484" lon="8.978400868764362"><ele>212.00000000000003</ele><time>2026-04-19T14:50:29.001Z</time></trkpt><trkpt lat="44.83241295898591" lon="8.978363431012863"><ele>212.0</ele><time>2026-04-19T14:50:30.001Z</time></trkpt><trkpt lat="44.83233401002655" lon="8.97833225999101"><ele>211.66666666666669</ele><time>2026-04-19T14:50:32Z</time></trkpt><trkpt lat="44.832268228251316" lon="8.97833422828712"><ele>211.33333333333334</ele><time>2026-04-19T14:50:34Z</time></trkpt><trkpt lat="44.83231037068133" lon="8.978481868975551"><ele>211.0</ele><time>2026-04-19T14:50:38Z</time></trkpt><trkpt lat="44.83236332383" lon="8.97856563710417"><ele>210.66666666666669</ele><time>2026-04-19T14:50:39Z</time></trkpt><trkpt lat="44.832415581691535" lon="8.978647611018031"><ele>210.33333333333334</ele><time>2026-04-19T14:50:40Z</time></trkpt><trkpt lat="44.832458346300264" lon="8.978744626828975"><ele>210.0</ele><time>2026-04-19T14:50:41Z</time></trkpt><trkpt lat="44.83250991391233" lon="8.978841685647174"><ele>210.0</ele><time>2026-04-19T14:50:42Z</time></trkpt><trkpt lat="44.83256596526756" lon="8.978937138110828"><ele>210.0</ele><time>2026-04-19T14:50:43Z</time></trkpt><trkpt lat="44.832633028778574" lon="8.979026730250526"><ele>210.0</ele><time>2026-04-19T14:50:44Z</time></trkpt><trkpt lat="44.832710587720214" lon="8.97911756363093"><ele>210.0</ele><time>2026-04-19T14:50:45Z</time></trkpt><trkpt lat="44.83279695315441" lon="8.979206946058726"><ele>210.0</ele><time>2026-04-19T14:50:46Z</time></trkpt><trkpt lat="44.83287817403065" lon="8.979293536129848"><ele>211.75</ele><time>2026-04-19T14:50:47Z</time></trkpt><trkpt lat="44.83297171130606" lon="8.979385893273244"><ele>213.5</ele><time>2026-04-19T14:50:48Z</time></trkpt><trkpt lat="44.83306819483716" lon="8.979481422102305"><ele>215.25</ele><time>2026-04-19T14:50:49Z</time></trkpt><trkpt lat="44.83316704211631" lon="8.979580679527842"><ele>217.0</ele><time>2026-04-19T14:50:50Z</time></trkpt><trkpt lat="44.833263659546006" lon="8.9796762204927"><ele>217.0</ele><time>2026-04-19T14:50:51Z</time></trkpt><trkpt lat="44.83336214723477" lon="8.979771433085135"><ele>217.0</ele><time>2026-04-19T14:50:52Z</time></trkpt><trkpt lat="44.833463137015386" lon="8.979871098564047"><ele>217.0</ele><time>2026-04-19T14:50:53Z</time></trkpt><trkpt lat="44.83356569733478" lon="8.979965272498047"><ele>217.0</ele><time>2026-04-19T14:50:54Z</time></trkpt><trkpt lat="44.83365047037866" lon="8.980048967995002"><ele>219.8</ele><time>2026-04-19T14:50:55Z</time></trkpt><trkpt lat="44.833731984698886" lon="8.980138423986002"><ele>222.6</ele><time>2026-04-19T14:50:56Z</time></trkpt><trkpt lat="44.83381530119874" lon="8.980220746821823"><ele>225.40000000000003</ele><time>2026-04-19T14:50:57Z</time></trkpt><trkpt lat="44.833905702507096" lon="8.980293731142805"><ele>228.20000000000002</ele><time>2026-04-19T14:50:58Z</time></trkpt><trkpt lat="44.833999921202185" lon="8.980359027259636"><ele>231.0</ele><time>2026-04-19T14:50:59Z</time></trkpt><trkpt lat="44.83409646515044" lon="8.980416748962904"><ele>231.0</ele><time>2026-04-19T14:51:00Z</time></trkpt><trkpt lat="44.834196558916126" lon="8.980468737871988"><ele>231.0</ele><time>2026-04-19T14:51:01Z</time></trkpt><trkpt lat="44.83430061025213" lon="8.980523006605225"><ele>231.0</ele><time>2026-04-19T14:51:02Z</time></trkpt><trkpt lat="44.83440958144362" lon="8.980585347817637"><ele>231.0</ele><time>2026-04-19T14:51:03Z</time></trkpt><trkpt lat="44.8345199482849" lon="8.980647310548777"><ele>231.8</ele><time>2026-04-19T14:51:04Z</time></trkpt><trkpt lat="44.83462691015766" lon="8.9807108697175"><ele>232.60000000000002</ele><time>2026-04-19T14:51:05Z</time></trkpt><trkpt lat="44.83473579146271" lon="8.980778703282091"><ele>233.4</ele><time>2026-04-19T14:51:06Z</time></trkpt><trkpt lat="44.83483067810105" lon="8.980840601999844"><ele>234.2</ele><time>2026-04-19T14:51:07Z</time></trkpt><trkpt lat="44.834921798164736" lon="8.980901547661544"><ele>235.0</ele><time>2026-04-19T14:51:08Z</time></trkpt><trkpt lat="44.83498227630374" lon="8.980953312735604"><ele>235.0</ele><time>2026-04-19T14:51:09Z</time></trkpt><trkpt lat="44.835037426357076" lon="8.981095399573658"><ele>235.0</ele><time>2026-04-19T14:51:11Z</time></trkpt><trkpt lat="44.83496212805461" lon="8.981223208787037"><ele>235.0</ele><time>2026-04-19T14:51:13Z</time></trkpt><trkpt lat="44.83484527182641" lon="8.98121139792918"><ele>235.0</ele><time>2026-04-19T14:51:15Z</time></trkpt><trkpt lat="44.8347833641011" lon="8.981165005700936"><ele>235.0</ele><time>2026-04-19T14:51:16Z</time></trkpt><trkpt lat="44.8347103777241" lon="8.981117268394861"><ele>235.0</ele><time>2026-04-19T14:51:17Z</time></trkpt><trkpt lat="44.83462636719914" lon="8.981094431042061"><ele>235.0</ele><time>2026-04-19T14:51:18Z</time></trkpt><trkpt lat="44.834533908016574" lon="8.981106304054947"><ele>235.0</ele><time>2026-04-19T14:51:19Z</time></trkpt><trkpt lat="44.83444690664512" lon="8.98114340559855"><ele>235.0</ele><time>2026-04-19T14:51:20Z</time></trkpt><trkpt lat="44.83436047417452" lon="8.981224733814452"><ele>235.0</ele><time>2026-04-19T14:51:21Z</time></trkpt><trkpt lat="44.834277345116945" lon="8.981310342408916"><ele>236.8</ele><time>2026-04-19T14:51:22Z</time></trkpt><trkpt lat="44.834192712731586" lon="8.981389490046206"><ele>238.6</ele><time>2026-04-19T14:51:23Z</time></trkpt><trkpt lat="44.834106452081684" lon="8.981451008258256"><ele>240.39999999999998</ele><time>2026-04-19T14:51:24Z</time></trkpt><trkpt lat="44.8340162781957" lon="8.981501747755072"><ele>242.2</ele><time>2026-04-19T14:51:25Z</time></trkpt><trkpt lat="44.833935499888206" lon="8.981565871694517"><ele>244.0</ele><time>2026-04-19T14:51:26Z</time></trkpt><trkpt lat="44.83385211150796" lon="8.981659160639635"><ele>245.6</ele><time>2026-04-19T14:51:27Z</time></trkpt><trkpt lat="44.83378053910123" lon="8.981750031091813"><ele>247.2</ele><time>2026-04-19T14:51:28Z</time></trkpt><trkpt lat="44.8337158124239" lon="8.98184607458447"><ele>248.79999999999998</ele><time>2026-04-19T14:51:29Z</time></trkpt><trkpt lat="44.8336568153402" lon="8.981946590147585"><ele>250.39999999999998</ele><time>2026-04-19T14:51:30Z</time></trkpt><trkpt lat="44.83361268892528" lon="8.982062567836804"><ele>252.0</ele><time>2026-04-19T14:51:31Z</time></trkpt><trkpt lat="44.83357219922341" lon="8.982188559243685"><ele>252.0</ele><time>2026-04-19T14:51:31.999Z</time></trkpt><trkpt lat="44.833538071847435" lon="8.982323071168697"><ele>252.0</ele><time>2026-04-19T14:51:32.999Z</time></trkpt><trkpt lat="44.83350952848232" lon="8.982466222981785"><ele>252.0</ele><time>2026-04-19T14:51:33.999Z</time></trkpt><trkpt lat="44.8334916959897" lon="8.982615668084142"><ele>252.0</ele><time>2026-04-19T14:51:34.999Z</time></trkpt><trkpt lat="44.833478308375035" lon="8.982775419981131"><ele>252.0</ele><time>2026-04-19T14:51:35.999Z</time></trkpt><trkpt lat="44.833471787550245" lon="8.982928823773971"><ele>253.2</ele><time>2026-04-19T14:51:36.999Z</time></trkpt><trkpt lat="44.83347009191132" lon="8.983081183120925"><ele>254.39999999999998</ele><time>2026-04-19T14:51:37.999Z</time></trkpt><trkpt lat="44.83348750315068" lon="8.98322854783376"><ele>255.60000000000002</ele><time>2026-04-19T14:51:38.999Z</time></trkpt><trkpt lat="44.833528889449006" lon="8.983368647147518"><ele>256.8</ele><time>2026-04-19T14:51:39.999Z</time></trkpt><trkpt lat="44.83358912940782" lon="8.983504204110398"><ele>258.0</ele><time>2026-04-19T14:51:40.999Z</time></trkpt><trkpt lat="44.83365931015518" lon="8.98363780093598"><ele>258.5</ele><time>2026-04-19T14:51:41.999Z</time></trkpt><trkpt lat="44.83373461255653" lon="8.983753670361217"><ele>259.0</ele><time>2026-04-19T14:51:42.999Z</time></trkpt><trkpt lat="44.83380429939884" lon="8.983881799734265"><ele>259.5</ele><time>2026-04-19T14:51:43.999Z</time></trkpt><trkpt lat="44.83387387072463" lon="8.984016075557514"><ele>260.0</ele><time>2026-04-19T14:51:44.999Z</time></trkpt><trkpt lat="44.83394302365055" lon="8.984145674138725"><ele>260.4</ele><time>2026-04-19T14:51:45.999Z</time></trkpt><trkpt lat="44.83401092579484" lon="8.984266050351916"><ele>260.8</ele><time>2026-04-19T14:51:46.999Z</time></trkpt><trkpt lat="44.834075550795134" lon="8.984385378928133"><ele>261.2</ele><time>2026-04-19T14:51:47.999Z</time></trkpt><trkpt lat="44.83412779231452" lon="8.984513287966475"><ele>261.6</ele><time>2026-04-19T14:51:48.999Z</time></trkpt><trkpt lat="44.83416421627069" lon="8.98465893258317"><ele>262.0</ele><time>2026-04-19T14:51:49.999Z</time></trkpt><trkpt lat="44.83419250603524" lon="8.98480446189651"><ele>262.0</ele><time>2026-04-19T14:51:50.999Z</time></trkpt><trkpt lat="44.83421182594219" lon="8.984952431699021"><ele>262.0</ele><time>2026-04-19T14:51:51.999Z</time></trkpt><trkpt lat="44.834226782393316" lon="8.985092071585877"><ele>262.0</ele><time>2026-04-19T14:51:52.999Z</time></trkpt><trkpt lat="44.83423642641086" lon="8.985245135215367"><ele>262.0</ele><time>2026-04-19T14:51:53.999Z</time></trkpt><trkpt lat="44.83425299583948" lon="8.985404458646727"><ele>262.0</ele><time>2026-04-19T14:51:54.999Z</time></trkpt><trkpt lat="44.834272405627516" lon="8.985544400963215"><ele>262.75</ele><time>2026-04-19T14:51:55.999Z</time></trkpt><trkpt lat="44.83430196250544" lon="8.985679731617076"><ele>263.5</ele><time>2026-04-19T14:51:56.999Z</time></trkpt><trkpt lat="44.834337383594594" lon="8.985825032879571"><ele>264.25</ele><time>2026-04-19T14:51:57.999Z</time></trkpt><trkpt lat="44.834345081742995" lon="8.986012618591243"><ele>265.0</ele><time>2026-04-19T14:51:58.999Z</time></trkpt><trkpt lat="44.834381698947674" lon="8.986155855114356"><ele>267.0</ele><time>2026-04-19T14:51:59.999Z</time></trkpt><trkpt lat="44.83441167792946" lon="8.986307622408946"><ele>269.0</ele><time>2026-04-19T14:52:00.999Z</time></trkpt><trkpt lat="44.83443555151837" lon="8.986460970551606"><ele>271.0</ele><time>2026-04-19T14:52:01.999Z</time></trkpt><trkpt lat="44.83445198257421" lon="8.986631335756305"><ele>273.0</ele><time>2026-04-19T14:52:02.999Z</time></trkpt><trkpt lat="44.8344918359498" lon="8.98678028723438"><ele>275.4</ele><time>2026-04-19T14:52:03.999Z</time></trkpt><trkpt lat="44.834536200691886" lon="8.986907944611195"><ele>277.8</ele><time>2026-04-19T14:52:04.999Z</time></trkpt><trkpt lat="44.83456355208858" lon="8.98703673963666"><ele>280.2</ele><time>2026-04-19T14:52:05.999Z</time></trkpt><trkpt lat="44.83458630010718" lon="8.987143467859926"><ele>282.6</ele><time>2026-04-19T14:52:06.999Z</time></trkpt><trkpt lat="44.83461409122017" lon="8.987249609309803"><ele>285.0</ele><time>2026-04-19T14:52:08.999Z</time></trkpt><trkpt lat="44.83451358269828" lon="8.987430662085645"><ele>285.0</ele><time>2026-04-19T14:52:10.999Z</time></trkpt><trkpt lat="44.834453281683984" lon="8.987507655108661"><ele>285.0</ele><time>2026-04-19T14:52:11.999Z</time></trkpt><trkpt lat="44.834387097258535" lon="8.987608507312373"><ele>285.0</ele><time>2026-04-19T14:52:12.999Z</time></trkpt><trkpt lat="44.83433243975632" lon="8.98770205158602"><ele>285.0</ele><time>2026-04-19T14:52:13.999Z</time></trkpt><trkpt lat="44.83425004574006" lon="8.987791604300813"><ele>285.0</ele><time>2026-04-19T14:52:14.999Z</time></trkpt><trkpt lat="44.83418283427428" lon="8.987879684276216"><ele>285.8</ele><time>2026-04-19T14:52:15.999Z</time></trkpt><trkpt lat="44.83411181257768" lon="8.987980821904186"><ele>286.6</ele><time>2026-04-19T14:52:16.999Z</time></trkpt><trkpt lat="44.834029196983174" lon="8.988099930979827"><ele>287.4</ele><time>2026-04-19T14:52:17.999Z</time></trkpt><trkpt lat="44.83395622165739" lon="8.988201862751293"><ele>288.2</ele><time>2026-04-19T14:52:18.999Z</time></trkpt><trkpt lat="44.8338740243913" lon="8.988275540417959"><ele>289.0</ele><time>2026-04-19T14:52:19.999Z</time></trkpt><trkpt lat="44.83377365287924" lon="8.988302062822815"><ele>289.0</ele><time>2026-04-19T14:52:20.999Z</time></trkpt><trkpt lat="44.83367241857284" lon="8.988278409659774"><ele>289.0</ele><time>2026-04-19T14:52:21.999Z</time></trkpt><trkpt lat="44.833578893466544" lon="8.988247949010962"><ele>289.0</ele><time>2026-04-19T14:52:22.999Z</time></trkpt><trkpt lat="44.833491023565934" lon="8.988214159571347"><ele>289.0</ele><time>2026-04-19T14:52:23.999Z</time></trkpt><trkpt lat="44.833424628667025" lon="8.988204218346178"><ele>289.0</ele><time>2026-04-19T14:52:24.999Z</time></trkpt><trkpt lat="44.83335106585478" lon="8.988238203450269"><ele>289.0</ele><time>2026-04-19T14:52:25.999Z</time></trkpt><trkpt lat="44.83330365230949" lon="8.98832973307608"><ele>290.3333333333333</ele><time>2026-04-19T14:52:27.001Z</time></trkpt><trkpt lat="44.83330651199923" lon="8.988441885227358"><ele>291.66666666666663</ele><time>2026-04-19T14:52:28.001Z</time></trkpt><trkpt lat="44.8333423782693" lon="8.988531484477237"><ele>293.0</ele><time>2026-04-19T14:52:29.001Z</time></trkpt><trkpt lat="44.83341255264621" lon="8.988602714385575"><ele>294.3333333333333</ele><time>2026-04-19T14:52:30.001Z</time></trkpt><trkpt lat="44.833487380758925" lon="8.988662407998156"><ele>295.6666666666667</ele><time>2026-04-19T14:52:31.001Z</time></trkpt><trkpt lat="44.83357687147487" lon="8.988709375232132"><ele>297.0</ele><time>2026-04-19T14:52:32.001Z</time></trkpt><trkpt lat="44.83367333477751" lon="8.988756841521795"><ele>298.4</ele><time>2026-04-19T14:52:33.001Z</time></trkpt><trkpt lat="44.833764892908505" lon="8.988794024575222"><ele>299.79999999999995</ele><time>2026-04-19T14:52:34.001Z</time></trkpt><trkpt lat="44.83385856544544" lon="8.988789837862036"><ele>301.2</ele><time>2026-04-19T14:52:35.001Z</time></trkpt><trkpt lat="44.83394889922579" lon="8.98873592972772"><ele>302.59999999999997</ele><time>2026-04-19T14:52:36.001Z</time></trkpt><trkpt lat="44.83402678212486" lon="8.988641283885173"><ele>304.0</ele><time>2026-04-19T14:52:37.001Z</time></trkpt><trkpt lat="44.834089138517264" lon="8.98853709759228"><ele>304.0</ele><time>2026-04-19T14:52:38.001Z</time></trkpt><trkpt lat="44.8341463841231" lon="8.988453746378795"><ele>304.0</ele><time>2026-04-19T14:52:39.001Z</time></trkpt><trkpt lat="44.83422672444943" lon="8.988417664260473"><ele>304.0</ele><time>2026-04-19T14:52:40.001Z</time></trkpt><trkpt lat="44.83430690004928" lon="8.988423974885642"><ele>304.0</ele><time>2026-04-19T14:52:41.001Z</time></trkpt><trkpt lat="44.834371826148754" lon="8.988466975076694"><ele>304.0</ele><time>2026-04-19T14:52:42.001Z</time></trkpt><trkpt lat="44.83442239515586" lon="8.98855981647372"><ele>304.0</ele><time>2026-04-19T14:52:43.001Z</time></trkpt><trkpt lat="44.83445005238842" lon="8.98866832077705"><ele>304.3333333333333</ele><time>2026-04-19T14:52:44Z</time></trkpt><trkpt lat="44.83447766421027" lon="8.988783956137498"><ele>304.66666666666663</ele><time>2026-04-19T14:52:45Z</time></trkpt><trkpt lat="44.83450422440211" lon="8.988899929146335"><ele>305.0</ele><time>2026-04-19T14:52:46Z</time></trkpt><trkpt lat="44.834542712218656" lon="8.988998489744334"><ele>305.3333333333333</ele><time>2026-04-19T14:52:47Z</time></trkpt><trkpt lat="44.83457699711504" lon="8.989119832290237"><ele>305.6666666666667</ele><time>2026-04-19T14:52:48Z</time></trkpt><trkpt lat="44.83461691711061" lon="8.989243916150649"><ele>306.0</ele><time>2026-04-19T14:52:49Z</time></trkpt><trkpt lat="44.83465858866518" lon="8.989356812887804"><ele>307.3333333333333</ele><time>2026-04-19T14:52:50Z</time></trkpt><trkpt lat="44.83471088713597" lon="8.989457760862598"><ele>308.6666666666667</ele><time>2026-04-19T14:52:51Z</time></trkpt><trkpt lat="44.834775926439946" lon="8.989548878135334"><ele>310.0</ele><time>2026-04-19T14:52:52Z</time></trkpt><trkpt lat="44.834850942612604" lon="8.989611769210631"><ele>311.33333333333337</ele><time>2026-04-19T14:52:53Z</time></trkpt><trkpt lat="44.834930772370754" lon="8.989658823865339"><ele>312.6666666666667</ele><time>2026-04-19T14:52:54Z</time></trkpt><trkpt lat="44.835005393084806" lon="8.989686655517543"><ele>314.0</ele><time>2026-04-19T14:52:55Z</time></trkpt><trkpt lat="44.8350972325862" lon="8.989706396848197"><ele>313.2</ele><time>2026-04-19T14:52:56Z</time></trkpt><trkpt lat="44.835187288554884" lon="8.989699485352874"><ele>312.4</ele><time>2026-04-19T14:52:57Z</time></trkpt><trkpt lat="44.83527721290713" lon="8.989677457184653"><ele>311.6</ele><time>2026-04-19T14:52:58Z</time></trkpt><trkpt lat="44.835368860955455" lon="8.989634881771142"><ele>310.8</ele><time>2026-04-19T14:52:59Z</time></trkpt><trkpt lat="44.83545221629397" lon="8.989580713816975"><ele>310.0</ele><time>2026-04-19T14:53:00Z</time></trkpt><trkpt lat="44.83554813776418" lon="8.989536854939592"><ele>310.0</ele><time>2026-04-19T14:53:01Z</time></trkpt><trkpt lat="44.835636090901275" lon="8.989495839488729"><ele>310.0</ele><time>2026-04-19T14:53:02Z</time></trkpt><trkpt lat="44.83571917724488" lon="8.9894592957266"><ele>310.0</ele><time>2026-04-19T14:53:03Z</time></trkpt><trkpt lat="44.83577832547118" lon="8.989428389177474"><ele>310.0</ele><time>2026-04-19T14:53:04Z</time></trkpt><trkpt lat="44.835863630969754" lon="8.989455309588504"><ele>310.0</ele><time>2026-04-19T14:53:06Z</time></trkpt><trkpt lat="44.83591678461133" lon="8.98958341551541"><ele>310.0</ele><time>2026-04-19T14:53:08Z</time></trkpt><trkpt lat="44.835921394550674" lon="8.989707840407773"><ele>310.0</ele><time>2026-04-19T14:53:09Z</time></trkpt><trkpt lat="44.835945393792066" lon="8.989815928516443"><ele>310.0</ele><time>2026-04-19T14:53:10Z</time></trkpt><trkpt lat="44.83592925171755" lon="8.989939619495816"><ele>310.0</ele><time>2026-04-19T14:53:11Z</time></trkpt><trkpt lat="44.83593594800005" lon="8.990084344837431"><ele>310.0</ele><time>2026-04-19T14:53:12Z</time></trkpt><trkpt lat="44.83588474147592" lon="8.990170089654189"><ele>310.0</ele><time>2026-04-19T14:53:13Z</time></trkpt><trkpt lat="44.83581932738907" lon="8.990227415410363"><ele>310.0</ele><time>2026-04-19T14:53:14Z</time></trkpt><trkpt lat="44.835745433701824" lon="8.990275643457757"><ele>308.0</ele><time>2026-04-19T14:53:15Z</time></trkpt><trkpt lat="44.83566192256688" lon="8.990346139906755"><ele>306.0</ele><time>2026-04-19T14:53:16Z</time></trkpt><trkpt lat="44.835566920401405" lon="8.990384227676794"><ele>304.0</ele><time>2026-04-19T14:53:17Z</time></trkpt><trkpt lat="44.83547575464737" lon="8.990463067456583"><ele>302.0</ele><time>2026-04-19T14:53:18Z</time></trkpt><trkpt lat="44.83538585162644" lon="8.99056229055046"><ele>300.0</ele><time>2026-04-19T14:53:19Z</time></trkpt><trkpt lat="44.83530508217521" lon="8.990668506079377"><ele>300.0</ele><time>2026-04-19T14:53:20Z</time></trkpt><trkpt lat="44.83522440740339" lon="8.990810206996182"><ele>300.0</ele><time>2026-04-19T14:53:21Z</time></trkpt><trkpt lat="44.83513618168279" lon="8.990952274469704"><ele>300.0</ele><time>2026-04-19T14:53:22Z</time></trkpt><trkpt lat="44.835054032127395" lon="8.991075740558854"><ele>300.0</ele><time>2026-04-19T14:53:23Z</time></trkpt><trkpt lat="44.83497780128128" lon="8.991203598703665"><ele>304.5</ele><time>2026-04-19T14:53:24Z</time></trkpt><trkpt lat="44.83489642928205" lon="8.991328477403568"><ele>309.0</ele><time>2026-04-19T14:53:25Z</time></trkpt><trkpt lat="44.83482459429445" lon="8.991460677092931"><ele>313.5</ele><time>2026-04-19T14:53:26Z</time></trkpt><trkpt lat="44.83474347032987" lon="8.991589184036053"><ele>318.0</ele><time>2026-04-19T14:53:27Z</time></trkpt><trkpt lat="44.8346598460945" lon="8.991715072091413"><ele>318.4</ele><time>2026-04-19T14:53:28Z</time></trkpt><trkpt lat="44.83457757169993" lon="8.991854620548715"><ele>318.8</ele><time>2026-04-19T14:53:29Z</time></trkpt><trkpt lat="44.83452105370591" lon="8.99197102534718"><ele>319.2</ele><time>2026-04-19T14:53:30Z</time></trkpt><trkpt lat="44.83446448005237" lon="8.992081608206918"><ele>319.6</ele><time>2026-04-19T14:53:31Z</time></trkpt><trkpt lat="44.83444439330873" lon="8.992178089039722"><ele>320.0</ele><time>2026-04-19T14:53:32Z</time></trkpt><trkpt lat="44.83444151054393" lon="8.992268021648748"><ele>320.0</ele><time>2026-04-19T14:53:33Z</time></trkpt><trkpt lat="44.83447145234525" lon="8.992359573031482"><ele>320.0</ele><time>2026-04-19T14:53:34Z</time></trkpt><trkpt lat="44.83451155115615" lon="8.992464612710386"><ele>320.0</ele><time>2026-04-19T14:53:35Z</time></trkpt><trkpt lat="44.83457272765302" lon="8.992587783697536"><ele>320.0</ele><time>2026-04-19T14:53:36Z</time></trkpt><trkpt lat="44.83462112213283" lon="8.992718224292135"><ele>320.0</ele><time>2026-04-19T14:53:37Z</time></trkpt><trkpt lat="44.834687413917294" lon="8.992843925375078"><ele>320.2</ele><time>2026-04-19T14:53:38Z</time></trkpt><trkpt lat="44.83474388091611" lon="8.992981877985219"><ele>320.4</ele><time>2026-04-19T14:53:39Z</time></trkpt><trkpt lat="44.83479582792836" lon="8.993111229244425"><ele>320.6</ele><time>2026-04-19T14:53:40Z</time></trkpt><trkpt lat="44.83484688457511" lon="8.993233755863693"><ele>320.8</ele><time>2026-04-19T14:53:40.999Z</time></trkpt><trkpt lat="44.83490678633582" lon="8.993351914187327"><ele>321.0</ele><time>2026-04-19T14:53:41.999Z</time></trkpt><trkpt lat="44.83497581218865" lon="8.99345636168905"><ele>321.0</ele><time>2026-04-19T14:53:42.999Z</time></trkpt><trkpt lat="44.83506162238648" lon="8.993548667784253"><ele>321.0</ele><time>2026-04-19T14:53:43.999Z</time></trkpt><trkpt lat="44.83515841235091" lon="8.993618444877967"><ele>321.0</ele><time>2026-04-19T14:53:44.999Z</time></trkpt><trkpt lat="44.83525744081688" lon="8.993681360607374"><ele>321.0</ele><time>2026-04-19T14:53:45.999Z</time></trkpt><trkpt lat="44.83534995584287" lon="8.993740970475272"><ele>321.0</ele><time>2026-04-19T14:53:46.999Z</time></trkpt><trkpt lat="44.83543088143054" lon="8.993780213733702"><ele>324.0</ele><time>2026-04-19T14:53:47.999Z</time></trkpt><trkpt lat="44.8355104280396" lon="8.993815377752478"><ele>327.0</ele><time>2026-04-19T14:53:48.999Z</time></trkpt><trkpt lat="44.83558714646017" lon="8.993843319967795"><ele>330.0</ele><time>2026-04-19T14:53:49.999Z</time></trkpt><trkpt lat="44.835672745218204" lon="8.993877294057976"><ele>333.0</ele><time>2026-04-19T14:53:50.999Z</time></trkpt><trkpt lat="44.835760440934564" lon="8.993908605681769"><ele>336.0</ele><time>2026-04-19T14:53:51.999Z</time></trkpt><trkpt lat="44.835854468286556" lon="8.99394145428051"><ele>339.0</ele><time>2026-04-19T14:53:52.999Z</time></trkpt><trkpt lat="44.8359427341632" lon="8.993980341637354"><ele>339.2</ele><time>2026-04-19T14:53:53.999Z</time></trkpt><trkpt lat="44.83603136160574" lon="8.994013677261586"><ele>339.4</ele><time>2026-04-19T14:53:54.999Z</time></trkpt><trkpt lat="44.83612618624713" lon="8.994045378414107"><ele>339.6</ele><time>2026-04-19T14:53:55.999Z</time></trkpt><trkpt lat="44.83622737819696" lon="8.994082232249506"><ele>339.8</ele><time>2026-04-19T14:53:56.999Z</time></trkpt><trkpt lat="44.836324009301784" lon="8.99411775431447"><ele>340.0</ele><time>2026-04-19T14:53:57.999Z</time></trkpt><trkpt lat="44.83641185523713" lon="8.994156128458506"><ele>341.4</ele><time>2026-04-19T14:53:58.999Z</time></trkpt><trkpt lat="44.836499987415216" lon="8.99420645569806"><ele>342.8</ele><time>2026-04-19T14:53:59.999Z</time></trkpt><trkpt lat="44.83656736136538" lon="8.994285657701358"><ele>344.20000000000005</ele><time>2026-04-19T14:54:00.999Z</time></trkpt><trkpt lat="44.83662197851568" lon="8.994395355528713"><ele>345.6</ele><time>2026-04-19T14:54:01.999Z</time></trkpt><trkpt lat="44.83665163169751" lon="8.99452048050718"><ele>347.0</ele><time>2026-04-19T14:54:02.999Z</time></trkpt><trkpt lat="44.83668505452161" lon="8.994645097324184"><ele>347.0</ele><time>2026-04-19T14:54:03.999Z</time></trkpt><trkpt lat="44.836766503916785" lon="8.994726172599517"><ele>347.0</ele><time>2026-04-19T14:54:04.999Z</time></trkpt><trkpt lat="44.83685618786282" lon="8.994796009938"><ele>347.0</ele><time>2026-04-19T14:54:05.999Z</time></trkpt><trkpt lat="44.83695194746363" lon="8.9948472495319"><ele>347.0</ele><time>2026-04-19T14:54:06.999Z</time></trkpt><trkpt lat="44.83704380878741" lon="8.994904471148983"><ele>347.0</ele><time>2026-04-19T14:54:07.999Z</time></trkpt><trkpt lat="44.83713254520771" lon="8.99496615299795"><ele>347.20000000000005</ele><time>2026-04-19T14:54:08.999Z</time></trkpt><trkpt lat="44.83720667321713" lon="8.99504536828533"><ele>347.4</ele><time>2026-04-19T14:54:09.999Z</time></trkpt><trkpt lat="44.8372605846978" lon="8.995146760714343"><ele>347.6</ele><time>2026-04-19T14:54:10.999Z</time></trkpt><trkpt lat="44.83728878118325" lon="8.995262180263502"><ele>347.79999999999995</ele><time>2026-04-19T14:54:11.999Z</time></trkpt><trkpt lat="44.83732099105038" lon="8.99538866159923"><ele>348.0</ele><time>2026-04-19T14:54:12.999Z</time></trkpt><trkpt lat="44.83735245574529" lon="8.995520615189127"><ele>348.0</ele><time>2026-04-19T14:54:13.999Z</time></trkpt><trkpt lat="44.83739057882823" lon="8.995632928278745"><ele>348.0</ele><time>2026-04-19T14:54:14.999Z</time></trkpt><trkpt lat="44.83744353335113" lon="8.995750129600376"><ele>348.0</ele><time>2026-04-19T14:54:15.999Z</time></trkpt><trkpt lat="44.83750053473838" lon="8.995829543837651"><ele>348.0</ele><time>2026-04-19T14:54:16.999Z</time></trkpt><trkpt lat="44.83757577341484" lon="8.995902480441314"><ele>348.0</ele><time>2026-04-19T14:54:17.999Z</time></trkpt><trkpt lat="44.83766314583553" lon="8.99593762343014"><ele>348.0</ele><time>2026-04-19T14:54:18.999Z</time></trkpt><trkpt lat="44.837768865013196" lon="8.995962014005974"><ele>348.2</ele><time>2026-04-19T14:54:19.999Z</time></trkpt><trkpt lat="44.837869526210014" lon="8.9959838572092"><ele>348.4</ele><time>2026-04-19T14:54:20.999Z</time></trkpt><trkpt lat="44.83798860732313" lon="8.99603248585573"><ele>348.59999999999997</ele><time>2026-04-19T14:54:21.999Z</time></trkpt><trkpt lat="44.83807234602022" lon="8.99602406785085"><ele>348.79999999999995</ele><time>2026-04-19T14:54:22.999Z</time></trkpt><trkpt lat="44.83817616459009" lon="8.99603563172526"><ele>349.0</ele><time>2026-04-19T14:54:23.999Z</time></trkpt><trkpt lat="44.8382871296412" lon="8.996009624990124"><ele>349.0</ele><time>2026-04-19T14:54:24.999Z</time></trkpt><trkpt lat="44.83840852274657" lon="8.996052304452423"><ele>349.0</ele><time>2026-04-19T14:54:25.999Z</time></trkpt><trkpt lat="44.83852042963751" lon="8.996108280144336"><ele>349.0</ele><time>2026-04-19T14:54:26.999Z</time></trkpt><trkpt lat="44.8386341689803" lon="8.99615786256814"><ele>349.0</ele><time>2026-04-19T14:54:27.999Z</time></trkpt><trkpt lat="44.83874410423747" lon="8.996196634284738"><ele>351.0</ele><time>2026-04-19T14:54:28.999Z</time></trkpt><trkpt lat="44.83885434207436" lon="8.996226205297855"><ele>353.0</ele><time>2026-04-19T14:54:29.999Z</time></trkpt><trkpt lat="44.83896194828655" lon="8.996242360170077"><ele>355.0</ele><time>2026-04-19T14:54:30.999Z</time></trkpt><trkpt lat="44.83906612478423" lon="8.996276199533417"><ele>357.0</ele><time>2026-04-19T14:54:32.001Z</time></trkpt><trkpt lat="44.839163550427386" lon="8.996346045428172"><ele>359.0</ele><time>2026-04-19T14:54:33.001Z</time></trkpt><trkpt lat="44.839252101850846" lon="8.996415374122542"><ele>358.79999999999995</ele><time>2026-04-19T14:54:34.001Z</time></trkpt><trkpt lat="44.83935394929713" lon="8.996433827062331"><ele>358.59999999999997</ele><time>2026-04-19T14:54:35.001Z</time></trkpt><trkpt lat="44.839448422493255" lon="8.996501146245185"><ele>358.4</ele><time>2026-04-19T14:54:36.001Z</time></trkpt><trkpt lat="44.83953768601464" lon="8.996575156246925"><ele>358.2</ele><time>2026-04-19T14:54:37.001Z</time></trkpt><trkpt lat="44.83962606057253" lon="8.99665551214549"><ele>358.0</ele><time>2026-04-19T14:54:38.001Z</time></trkpt><trkpt lat="44.83970845956138" lon="8.996752461025002"><ele>358.0</ele><time>2026-04-19T14:54:39.001Z</time></trkpt><trkpt lat="44.839786490547624" lon="8.996857052442719"><ele>358.0</ele><time>2026-04-19T14:54:40.001Z</time></trkpt><trkpt lat="44.83985873444481" lon="8.99696349857571"><ele>358.0</ele><time>2026-04-19T14:54:41.001Z</time></trkpt><trkpt lat="44.839923872936936" lon="8.997074525515279"><ele>358.0</ele><time>2026-04-19T14:54:42.001Z</time></trkpt><trkpt lat="44.83999114168347" lon="8.99717183781814"><ele>358.0</ele><time>2026-04-19T14:54:43.001Z</time></trkpt><trkpt lat="44.840071304688024" lon="8.99727790909849"><ele>358.4</ele><time>2026-04-19T14:54:44.001Z</time></trkpt><trkpt lat="44.840162394258364" lon="8.99735100372058"><ele>358.79999999999995</ele><time>2026-04-19T14:54:45.001Z</time></trkpt><trkpt lat="44.84024805320283" lon="8.99742897029842"><ele>359.2</ele><time>2026-04-19T14:54:46.001Z</time></trkpt><trkpt lat="44.84031544781104" lon="8.997501097406168"><ele>359.6</ele><time>2026-04-19T14:54:47.001Z</time></trkpt><trkpt lat="44.840392867602624" lon="8.997575016817065"><ele>360.0</ele><time>2026-04-19T14:54:48.001Z</time></trkpt><trkpt lat="44.84047833927435" lon="8.99763757958286"><ele>360.0</ele><time>2026-04-19T14:54:49.001Z</time></trkpt><trkpt lat="44.840566587324744" lon="8.99771583017353"><ele>360.0</ele><time>2026-04-19T14:54:50.001Z</time></trkpt><trkpt lat="44.84064494904544" lon="8.997802853691452"><ele>360.0</ele><time>2026-04-19T14:54:51.001Z</time></trkpt><trkpt lat="44.840715623266576" lon="8.997887382784208"><ele>360.0</ele><time>2026-04-19T14:54:52.001Z</time></trkpt><trkpt lat="44.84076920457051" lon="8.99794962137295"><ele>360.0</ele><time>2026-04-19T14:54:53.001Z</time></trkpt><trkpt lat="44.84087366025973" lon="8.998053154344316"><ele>360.0</ele><time>2026-04-19T14:54:55Z</time></trkpt><trkpt lat="44.84093160624575" lon="8.998103180315326"><ele>360.0</ele><time>2026-04-19T14:54:56Z</time></trkpt><trkpt lat="44.84103396532998" lon="8.998188575594416"><ele>360.0</ele><time>2026-04-19T14:54:58Z</time></trkpt><trkpt lat="44.84111128899837" lon="8.998239230893024"><ele>360.0</ele><time>2026-04-19T14:55:00Z</time></trkpt><trkpt lat="44.84119580144323" lon="8.99827529329553"><ele>360.0</ele><time>2026-04-19T14:55:02Z</time></trkpt><trkpt lat="44.8412735768576" lon="8.998309185052255"><ele>360.0</ele><time>2026-04-19T14:55:04Z</time></trkpt><trkpt lat="44.84136349968266" lon="8.99832854000721"><ele>360.0</ele><time>2026-04-19T14:55:06Z</time></trkpt><trkpt lat="44.84128384873298" lon="8.998281873744164"><ele>360.0</ele><time>2026-04-19T14:56:00.999Z</time></trkpt><trkpt lat="44.84121672299385" lon="8.998274133512927"><ele>360.0</ele><time>2026-04-19T14:56:01.999Z</time></trkpt><trkpt lat="44.84113712219897" lon="8.998247176096333"><ele>360.0</ele><time>2026-04-19T14:56:03.999Z</time></trkpt><trkpt lat="44.84106456361501" lon="8.998216034108227"><ele>360.0</ele><time>2026-04-19T14:56:06.999Z</time></trkpt><trkpt lat="44.84098677151032" lon="8.998212844452707"><ele>360.0</ele><time>2026-04-19T14:56:20.999Z</time></trkpt><trkpt lat="44.84088648801957" lon="8.9981820704683"><ele>360.0</ele><time>2026-04-19T14:56:23.999Z</time></trkpt><trkpt lat="44.84081179067217" lon="8.998150639788658"><ele>360.0</ele><time>2026-04-19T14:56:25.999Z</time></trkpt><trkpt lat="44.84075092997838" lon="8.998179551365977"><ele>360.0</ele><time>2026-04-19T14:56:27.999Z</time></trkpt><trkpt lat="44.84069296263128" lon="8.998279248930388"><ele>360.0</ele><time>2026-04-19T14:56:30.999Z</time></trkpt><trkpt lat="44.84063626303634" lon="8.998367222232568"><ele>360.0</ele><time>2026-04-19T14:56:33.999Z</time></trkpt><trkpt lat="44.84057281259707" lon="8.998431252496632"><ele>360.0</ele><time>2026-04-19T14:56:41.001Z</time></trkpt><trkpt lat="44.84050822436571" lon="8.998465782414224"><ele>357.6666666666667</ele><time>2026-04-19T14:56:43.001Z</time></trkpt><trkpt lat="44.84043975002586" lon="8.99848665630809"><ele>355.3333333333333</ele><time>2026-04-19T14:56:45.001Z</time></trkpt><trkpt lat="44.84037737209475" lon="8.998516367915792"><ele>353.0</ele><time>2026-04-19T14:56:47.001Z</time></trkpt><trkpt lat="44.84034130360246" lon="8.998593337215112"><ele>350.66666666666663</ele><time>2026-04-19T14:56:49.001Z</time></trkpt><trkpt lat="44.84032845570716" lon="8.998691933586253"><ele>348.3333333333333</ele><time>2026-04-19T14:56:51.001Z</time></trkpt><trkpt lat="44.84030962811512" lon="8.998805039029934"><ele>346.0</ele><time>2026-04-19T14:56:53.001Z</time></trkpt><trkpt lat="44.840274072733095" lon="8.998934458115455"><ele>346.0</ele><time>2026-04-19T14:56:55.001Z</time></trkpt><trkpt lat="44.840254311015265" lon="8.99902840871841"><ele>346.0</ele><time>2026-04-19T14:56:57.001Z</time></trkpt><trkpt lat="44.84023787403307" lon="8.99911571706922"><ele>346.0</ele><time>2026-04-19T14:56:59.001Z</time></trkpt><trkpt lat="44.840257496709704" lon="8.999226736988067"><ele>346.0</ele><time>2026-04-19T14:57:02Z</time></trkpt><trkpt lat="44.840241928895495" lon="8.999344807208388"><ele>346.0</ele><time>2026-04-19T14:57:09Z</time></trkpt><trkpt lat="44.84019566775107" lon="8.999414959216278"><ele>346.0</ele><time>2026-04-19T14:57:11Z</time></trkpt><trkpt lat="44.84011745088974" lon="8.999459646174325"><ele>341.3333333333333</ele><time>2026-04-19T14:57:13Z</time></trkpt><trkpt lat="44.840056886291826" lon="8.999498587488077"><ele>336.66666666666663</ele><time>2026-04-19T14:57:15Z</time></trkpt><trkpt lat="44.840028466486366" lon="8.999601495847946"><ele>332.0</ele><time>2026-04-19T14:57:17Z</time></trkpt><trkpt lat="44.840028000629346" lon="8.999705136221257"><ele>327.3333333333333</ele><time>2026-04-19T14:57:19Z</time></trkpt><trkpt lat="44.84000359929805" lon="8.999806018589275"><ele>322.6666666666667</ele><time>2026-04-19T14:57:22Z</time></trkpt><trkpt lat="44.83993365780778" lon="8.999814034085539"><ele>318.0</ele><time>2026-04-19T14:57:26Z</time></trkpt><trkpt lat="44.839872810582875" lon="8.999721946616814"><ele>318.0</ele><time>2026-04-19T14:57:28Z</time></trkpt><trkpt lat="44.839817709287786" lon="8.999659266690319"><ele>318.0</ele><time>2026-04-19T14:57:30Z</time></trkpt><trkpt lat="44.8397450311768" lon="8.999674691006238"><ele>318.0</ele><time>2026-04-19T14:57:32Z</time></trkpt><trkpt lat="44.83968332457637" lon="8.999751074319308"><ele>318.0</ele><time>2026-04-19T14:58:38.999Z</time></trkpt><trkpt lat="44.83961610262663" lon="8.99982320605269"><ele>318.0</ele><time>2026-04-19T14:58:40.999Z</time></trkpt><trkpt lat="44.8395191597615" lon="8.999883213489362"><ele>318.0</ele><time>2026-04-19T14:58:43.001Z</time></trkpt><trkpt lat="44.83940493279799" lon="8.999973162789031"><ele>314.6666666666667</ele><time>2026-04-19T14:58:45.001Z</time></trkpt><trkpt lat="44.83928610404359" lon="9.000044182341425"><ele>311.3333333333333</ele><time>2026-04-19T14:58:47.001Z</time></trkpt><trkpt lat="44.83922169443878" lon="9.000079308535629"><ele>308.0</ele><time>2026-04-19T14:58:48.001Z</time></trkpt><trkpt lat="44.839163946410395" lon="9.000126990766079"><ele>304.66666666666663</ele><time>2026-04-19T14:58:49.001Z</time></trkpt><trkpt lat="44.83909962364909" lon="9.00016467091292"><ele>301.3333333333333</ele><time>2026-04-19T14:58:50.001Z</time></trkpt><trkpt lat="44.83903765609279" lon="9.000200816261227"><ele>298.0</ele><time>2026-04-19T14:58:51.001Z</time></trkpt><trkpt lat="44.8389254473498" lon="9.000268578257936"><ele>298.0</ele><time>2026-04-19T14:58:53.001Z</time></trkpt><trkpt lat="44.83882229947862" lon="9.0003273308042"><ele>298.0</ele><time>2026-04-19T14:58:55.001Z</time></trkpt><trkpt lat="44.83872323551009" lon="9.000383490106593"><ele>298.0</ele><time>2026-04-19T14:58:57.001Z</time></trkpt><trkpt lat="44.83863937613981" lon="9.00044328051472"><ele>298.0</ele><time>2026-04-19T14:58:59.001Z</time></trkpt><trkpt lat="44.83855002666565" lon="9.00052567731205"><ele>298.0</ele><time>2026-04-19T14:59:01.001Z</time></trkpt><trkpt lat="44.83845405802457" lon="9.000609396506254"><ele>294.4</ele><time>2026-04-19T14:59:03.001Z</time></trkpt><trkpt lat="44.838361671959895" lon="9.000691697595114"><ele>290.8</ele><time>2026-04-19T14:59:05Z</time></trkpt><trkpt lat="44.83829244453026" lon="9.000765175071443"><ele>287.2</ele><time>2026-04-19T14:59:07Z</time></trkpt><trkpt lat="44.83823474140641" lon="9.000857367037566"><ele>283.6</ele><time>2026-04-19T14:59:10Z</time></trkpt><trkpt lat="44.83817374244047" lon="9.000934936542015"><ele>280.0</ele><time>2026-04-19T14:59:13Z</time></trkpt><trkpt lat="44.83808919762377" lon="9.000983155199528"><ele>280.0</ele><time>2026-04-19T14:59:16Z</time></trkpt><trkpt lat="44.83802493670398" lon="9.000991740067308"><ele>280.0</ele><time>2026-04-19T14:59:18Z</time></trkpt><trkpt lat="44.83809632739163" lon="9.000992574369075"><ele>280.0</ele><time>2026-04-19T14:59:41Z</time></trkpt><trkpt lat="44.83815729142767" lon="9.000946634205215"><ele>280.0</ele><time>2026-04-19T14:59:45Z</time></trkpt><trkpt lat="44.83824584687594" lon="9.000847408384507"><ele>280.0</ele><time>2026-04-19T14:59:55.999Z</time></trkpt><trkpt lat="44.8383286082114" lon="9.000720687625403"><ele>280.0</ele><time>2026-04-19T14:59:56.999Z</time></trkpt><trkpt lat="44.83839956503048" lon="9.00062001957871"><ele>283.6</ele><time>2026-04-19T14:59:57.999Z</time></trkpt><trkpt lat="44.83851179133976" lon="9.000549325590415"><ele>287.2</ele><time>2026-04-19T14:59:59.999Z</time></trkpt><trkpt lat="44.83857558805083" lon="9.000493905747312"><ele>290.8</ele><time>2026-04-19T15:00:00.999Z</time></trkpt><trkpt lat="44.83865186455368" lon="9.000432853918017"><ele>294.4</ele><time>2026-04-19T15:00:01.999Z</time></trkpt><trkpt lat="44.838735211677054" lon="9.000364220453283"><ele>298.0</ele><time>2026-04-19T15:00:02.999Z</time></trkpt><trkpt lat="44.83881022202981" lon="9.000314594273513"><ele>298.0</ele><time>2026-04-19T15:00:03.999Z</time></trkpt><trkpt lat="44.838904269010435" lon="9.000273505419889"><ele>298.0</ele><time>2026-04-19T15:00:04.999Z</time></trkpt><trkpt lat="44.83902319642409" lon="9.000205504042054"><ele>298.0</ele><time>2026-04-19T15:00:05.999Z</time></trkpt><trkpt lat="44.83915621826944" lon="9.000123584692728"><ele>298.0</ele><time>2026-04-19T15:00:06.999Z</time></trkpt><trkpt lat="44.83927575923201" lon="9.000053178391992"><ele>301.3333333333333</ele><time>2026-04-19T15:00:07.999Z</time></trkpt><trkpt lat="44.83936626399765" lon="8.99999913606197"><ele>304.66666666666663</ele><time>2026-04-19T15:00:08.999Z</time></trkpt><trkpt lat="44.83944265799391" lon="8.999945651988387"><ele>308.0</ele><time>2026-04-19T15:00:09.999Z</time></trkpt><trkpt lat="44.83950323043683" lon="8.999915067051647"><ele>311.3333333333333</ele><time>2026-04-19T15:00:10.999Z</time></trkpt><trkpt lat="44.839559955057595" lon="8.999873190619502"><ele>314.6666666666667</ele><time>2026-04-19T15:00:11.999Z</time></trkpt><trkpt lat="44.83965723069966" lon="8.999776572959039"><ele>318.0</ele><time>2026-04-19T15:00:13.999Z</time></trkpt><trkpt lat="44.83973064061524" lon="8.99971188692863"><ele>318.0</ele><time>2026-04-19T15:00:15.999Z</time></trkpt><trkpt lat="44.83976569352896" lon="8.999620965370378"><ele>318.0</ele><time>2026-04-19T15:00:37.999Z</time></trkpt><trkpt lat="44.83974443734563" lon="8.99971186523985"><ele>318.0</ele><time>2026-04-19T15:00:54.001Z</time></trkpt><trkpt lat="44.83972866926143" lon="8.999846929051213"><ele>318.0</ele><time>2026-04-19T15:00:57.001Z</time></trkpt><trkpt lat="44.839753227725566" lon="8.999985052396418"><ele>318.0</ele><time>2026-04-19T15:00:59.001Z</time></trkpt><trkpt lat="44.83973959421726" lon="9.000094197726439"><ele>318.0</ele><time>2026-04-19T15:01:01.001Z</time></trkpt><trkpt lat="44.839765683313246" lon="9.000241203399879"><ele>318.0</ele><time>2026-04-19T15:01:03.001Z</time></trkpt><trkpt lat="44.83973832299079" lon="9.000358940086379"><ele>318.0</ele><time>2026-04-19T15:01:05.001Z</time></trkpt><trkpt lat="44.83972503675405" lon="9.000461618834882"><ele>318.0</ele><time>2026-04-19T15:01:07.001Z</time></trkpt><trkpt lat="44.83973989091321" lon="9.000570515370516"><ele>318.0</ele><time>2026-04-19T15:01:09.001Z</time></trkpt><trkpt lat="44.839814330159946" lon="9.000659921773066"><ele>318.0</ele><time>2026-04-19T15:01:12.001Z</time></trkpt><trkpt lat="44.83977780394059" lon="9.000750006506463"><ele>318.0</ele><time>2026-04-19T15:01:14Z</time></trkpt><trkpt lat="44.83976080018081" lon="9.000869588921036"><ele>313.8</ele><time>2026-04-19T15:01:15Z</time></trkpt><trkpt lat="44.839710689629285" lon="9.00104510095953"><ele>309.6</ele><time>2026-04-19T15:01:17Z</time></trkpt><trkpt lat="44.83967521008174" lon="9.001173914524964"><ele>305.4</ele><time>2026-04-19T15:01:19Z</time></trkpt><trkpt lat="44.83966565600614" lon="9.001296913981884"><ele>301.2</ele><time>2026-04-19T15:01:21Z</time></trkpt><trkpt lat="44.83965557114614" lon="9.001415723224394"><ele>297.0</ele><time>2026-04-19T15:01:23Z</time></trkpt><trkpt lat="44.8396708177107" lon="9.001522152874026"><ele>297.0</ele><time>2026-04-19T15:01:25Z</time></trkpt><trkpt lat="44.83970239447991" lon="9.001628689837837"><ele>297.0</ele><time>2026-04-19T15:01:27Z</time></trkpt><trkpt lat="44.839745835253275" lon="9.001725115299841"><ele>297.0</ele><time>2026-04-19T15:01:29Z</time></trkpt><trkpt lat="44.839792062187925" lon="9.00183770529994"><ele>297.0</ele><time>2026-04-19T15:01:31Z</time></trkpt><trkpt lat="44.83983133783809" lon="9.001944870983605"><ele>297.0</ele><time>2026-04-19T15:01:33Z</time></trkpt><trkpt lat="44.83987405720757" lon="9.002036339931687"><ele>297.0</ele><time>2026-04-19T15:01:35Z</time></trkpt><trkpt lat="44.83990463156451" lon="9.002154281899562"><ele>294.3333333333333</ele><time>2026-04-19T15:01:37Z</time></trkpt><trkpt lat="44.839922160585346" lon="9.002262107490926"><ele>291.6666666666667</ele><time>2026-04-19T15:01:39Z</time></trkpt><trkpt lat="44.83995131151552" lon="9.002358252858198"><ele>289.0</ele><time>2026-04-19T15:01:42Z</time></trkpt><trkpt lat="44.840003555819045" lon="9.002425574348768"><ele>286.33333333333337</ele><time>2026-04-19T15:02:06.999Z</time></trkpt><trkpt lat="44.8400381286599" lon="9.00253718495314"><ele>283.6666666666667</ele><time>2026-04-19T15:02:09.999Z</time></trkpt><trkpt lat="44.84001715284654" lon="9.002661387244979"><ele>281.0</ele><time>2026-04-19T15:02:12.999Z</time></trkpt><trkpt lat="44.840011719080536" lon="9.002764444722537"><ele>278.6666666666667</ele><time>2026-04-19T15:02:15.999Z</time></trkpt><trkpt lat="44.84008824695791" lon="9.00276551858427"><ele>276.33333333333337</ele><time>2026-04-19T15:02:21.999Z</time></trkpt><trkpt lat="44.84017532994196" lon="9.002720014970587"><ele>274.0</ele><time>2026-04-19T15:02:25.999Z</time></trkpt><trkpt lat="44.84025776096376" lon="9.002679518137638"><ele>271.6666666666667</ele><time>2026-04-19T15:02:28.999Z</time></trkpt><trkpt lat="44.840328911922136" lon="9.002615130434782"><ele>269.3333333333333</ele><time>2026-04-19T15:02:31.999Z</time></trkpt><trkpt lat="44.84039168522808" lon="9.00260405699482"><ele>267.0</ele><time>2026-04-19T15:02:36.999Z</time></trkpt><trkpt lat="44.840427017398426" lon="9.002691017919902"><ele>267.0</ele><time>2026-04-19T15:02:43.998Z</time></trkpt><trkpt lat="44.840422843812505" lon="9.002818251844326"><ele>267.0</ele><time>2026-04-19T15:02:46.998Z</time></trkpt><trkpt lat="44.840443777690574" lon="9.002932719378485"><ele>267.0</ele><time>2026-04-19T15:02:49.998Z</time></trkpt><trkpt lat="44.840473157511944" lon="9.003014244382566"><ele>267.0</ele><time>2026-04-19T15:02:51.998Z</time></trkpt><trkpt lat="44.84051588199135" lon="9.003124398898024"><ele>267.0</ele><time>2026-04-19T15:02:55.001Z</time></trkpt><trkpt lat="44.840564524909304" lon="9.003188715198627"><ele>267.0</ele><time>2026-04-19T15:02:58.001Z</time></trkpt><trkpt lat="44.84061971975059" lon="9.00324354132082"><ele>267.00000000000006</ele><time>2026-04-19T15:03:01.001Z</time></trkpt><trkpt lat="44.8406859445866" lon="9.003310903007957"><ele>267.0</ele><time>2026-04-19T15:03:04.001Z</time></trkpt><trkpt lat="44.84074198449151" lon="9.003401324937894"><ele>267.0</ele><time>2026-04-19T15:03:08.001Z</time></trkpt><trkpt lat="44.840783741631824" lon="9.003488804151692"><ele>267.0</ele><time>2026-04-19T15:03:12.001Z</time></trkpt><trkpt lat="44.84082072906033" lon="9.003578006734962"><ele>267.0</ele><time>2026-04-19T15:03:19Z</time></trkpt><trkpt lat="44.84079417679531" lon="9.00366298604767"><ele>267.00000000000006</ele><time>2026-04-19T15:03:23Z</time></trkpt><trkpt lat="44.840750624341325" lon="9.003736345474877"><ele>267.0</ele><time>2026-04-19T15:03:29Z</time></trkpt><trkpt lat="44.840727302763035" lon="9.003843032752815"><ele>266.28571428571433</ele><time>2026-04-19T15:03:48Z</time></trkpt><trkpt lat="44.84079697567518" lon="9.003862285928008"><ele>265.57142857142856</ele><time>2026-04-19T15:04:31.999Z</time></trkpt><trkpt lat="44.84086075200251" lon="9.00387419324258"><ele>264.8571428571429</ele><time>2026-04-19T15:04:34.998Z</time></trkpt><trkpt lat="44.840928565011716" lon="9.003850172473372"><ele>264.14285714285717</ele><time>2026-04-19T15:04:38.998Z</time></trkpt><trkpt lat="44.84100484316234" lon="9.003793771851115"><ele>263.42857142857144</ele><time>2026-04-19T15:04:45.998Z</time></trkpt><trkpt lat="44.84105764848632" lon="9.003725980142008"><ele>262.7142857142857</ele><time>2026-04-19T15:04:47.998Z</time></trkpt><trkpt lat="44.8411264142092" lon="9.003671796611298"><ele>262.0</ele><time>2026-04-19T15:04:50.998Z</time></trkpt><trkpt lat="44.8412330826139" lon="9.003648804505566"><ele>262.0</ele><time>2026-04-19T15:04:53.998Z</time></trkpt><trkpt lat="44.84131728360636" lon="9.003663633443574"><ele>262.0</ele><time>2026-04-19T15:04:55.998Z</time></trkpt><trkpt lat="44.84141360891489" lon="9.003654148008561"><ele>262.0</ele><time>2026-04-19T15:04:57.998Z</time></trkpt><trkpt lat="44.84151427841583" lon="9.00362039995575"><ele>262.0</ele><time>2026-04-19T15:05:00.001Z</time></trkpt><trkpt lat="44.84161305013505" lon="9.003581344570481"><ele>262.0</ele><time>2026-04-19T15:05:03.001Z</time></trkpt><trkpt lat="44.84169838221404" lon="9.0035311517565"><ele>262.0</ele><time>2026-04-19T15:05:05.001Z</time></trkpt><trkpt lat="44.8417458023068" lon="9.003448061350692"><ele>262.0</ele><time>2026-04-19T15:05:08.001Z</time></trkpt><trkpt lat="44.84177618117722" lon="9.003327926458837"><ele>262.0</ele><time>2026-04-19T15:06:11.999Z</time></trkpt><trkpt lat="44.84175241128881" lon="9.003228585783258"><ele>262.0</ele><time>2026-04-19T15:06:12.999Z</time></trkpt><trkpt lat="44.84176068896785" lon="9.003070019664348"><ele>262.0</ele><time>2026-04-19T15:06:14.999Z</time></trkpt><trkpt lat="44.84182503929282" lon="9.003055896651308"><ele>262.0</ele><time>2026-04-19T15:06:16.999Z</time></trkpt><trkpt lat="44.84193099837552" lon="9.002953208468709"><ele>265.2</ele><time>2026-04-19T15:06:18.999Z</time></trkpt><trkpt lat="44.8419903229857" lon="9.002888011072534"><ele>268.4</ele><time>2026-04-19T15:06:19.999Z</time></trkpt><trkpt lat="44.842089802270536" lon="9.002850597169155"><ele>271.6</ele><time>2026-04-19T15:06:21.999Z</time></trkpt><trkpt lat="44.84219994776738" lon="9.002895647385259"><ele>274.8</ele><time>2026-04-19T15:06:23.999Z</time></trkpt><trkpt lat="44.842261176184984" lon="9.003005634055242"><ele>278.0</ele><time>2026-04-19T15:06:25.999Z</time></trkpt><trkpt lat="44.84220554550966" lon="9.003119504717214"><ele>278.0</ele><time>2026-04-19T15:06:27.999Z</time></trkpt><trkpt lat="44.84209536172876" lon="9.003152020937678"><ele>278.0</ele><time>2026-04-19T15:06:29.999Z</time></trkpt><trkpt lat="44.842006650883754" lon="9.003257375865516"><ele>278.0</ele><time>2026-04-19T15:06:31.999Z</time></trkpt><trkpt lat="44.84195836808979" lon="9.003315505860527"><ele>278.0</ele><time>2026-04-19T15:06:32.999Z</time></trkpt><trkpt lat="44.841954101442305" lon="9.003425731524393"><ele>278.0</ele><time>2026-04-19T15:06:34.999Z</time></trkpt><trkpt lat="44.84204104695173" lon="9.003432503952068"><ele>278.0</ele><time>2026-04-19T15:06:36.999Z</time></trkpt><trkpt lat="44.842102080047496" lon="9.003316025635923"><ele>278.0</ele><time>2026-04-19T15:06:38.999Z</time></trkpt><trkpt lat="44.84216642847229" lon="9.003227487738044"><ele>278.0</ele><time>2026-04-19T15:06:40.999Z</time></trkpt><trkpt lat="44.84224659759314" lon="9.003104326573206"><ele>278.0</ele><time>2026-04-19T15:06:42.999Z</time></trkpt><trkpt lat="44.84229273152659" lon="9.003015954386733"><ele>278.0</ele><time>2026-04-19T15:06:43.999Z</time></trkpt><trkpt lat="44.84233553135804" lon="9.002922346196419"><ele>278.0</ele><time>2026-04-19T15:06:44.999Z</time></trkpt><trkpt lat="44.842376100590975" lon="9.002789783186621"><ele>278.0</ele><time>2026-04-19T15:06:46.998Z</time></trkpt><trkpt lat="44.842359646763676" lon="9.002679340826253"><ele>278.0</ele><time>2026-04-19T15:06:48.998Z</time></trkpt><trkpt lat="44.842304892762016" lon="9.00263505590084"><ele>278.0</ele><time>2026-04-19T15:06:49.998Z</time></trkpt><trkpt lat="44.84224971248242" lon="9.00258632447097"><ele>278.0</ele><time>2026-04-19T15:06:50.998Z</time></trkpt><trkpt lat="44.842155065145946" lon="9.002607332274913"><ele>278.0</ele><time>2026-04-19T15:06:53.998Z</time></trkpt><trkpt lat="44.842091183455366" lon="9.002711882917746"><ele>278.0</ele><time>2026-04-19T15:06:55.998Z</time></trkpt><trkpt lat="44.84200583138419" lon="9.002821861817608"><ele>278.0</ele><time>2026-04-19T15:06:57.998Z</time></trkpt><trkpt lat="44.84190085099363" lon="9.002931626917116"><ele>278.0</ele><time>2026-04-19T15:06:59.998Z</time></trkpt><trkpt lat="44.84179134248862" lon="9.003032048245805"><ele>278.0</ele><time>2026-04-19T15:07:01.998Z</time></trkpt><trkpt lat="44.84168673192919" lon="9.003157432316263"><ele>276.5</ele><time>2026-04-19T15:07:03.998Z</time></trkpt><trkpt lat="44.84163769026204" lon="9.003226777224096"><ele>275.0</ele><time>2026-04-19T15:07:05.001Z</time></trkpt><trkpt lat="44.84157651839075" lon="9.003336830805594"><ele>273.5</ele><time>2026-04-19T15:07:07.001Z</time></trkpt><trkpt lat="44.84152841462869" lon="9.00339662819728"><ele>272.0</ele><time>2026-04-19T15:07:09.001Z</time></trkpt><trkpt lat="44.84146370202669" lon="9.003497742913218"><ele>270.5</ele><time>2026-04-19T15:07:11.001Z</time></trkpt><trkpt lat="44.841406908235165" lon="9.003458782121484"><ele>269.0</ele><time>2026-04-19T15:07:14.001Z</time></trkpt><trkpt lat="44.84142636547483" lon="9.003343096091609"><ele>269.0</ele><time>2026-04-19T15:07:17.001Z</time></trkpt><trkpt lat="44.84150474434996" lon="9.00325506116469"><ele>269.0</ele><time>2026-04-19T15:07:19.001Z</time></trkpt><trkpt lat="44.84159263469057" lon="9.003167865271758"><ele>269.0</ele><time>2026-04-19T15:07:21.001Z</time></trkpt><trkpt lat="44.84165784720865" lon="9.003106237899466"><ele>269.0</ele><time>2026-04-19T15:07:22.001Z</time></trkpt><trkpt lat="44.84172313423797" lon="9.003031564810641"><ele>269.0</ele><time>2026-04-19T15:07:23.001Z</time></trkpt><trkpt lat="44.8417806042368" lon="9.002966563556551"><ele>269.0</ele><time>2026-04-19T15:07:24.001Z</time></trkpt><trkpt lat="44.8418437152173" lon="9.00290051561799"><ele>270.5</ele><time>2026-04-19T15:07:25.001Z</time></trkpt><trkpt lat="44.8418970480981" lon="9.00284404837777"><ele>272.0</ele><time>2026-04-19T15:07:26.001Z</time></trkpt><trkpt lat="44.841964812223665" lon="9.002757475746174"><ele>273.5</ele><time>2026-04-19T15:07:28Z</time></trkpt><trkpt lat="44.84201394011943" lon="9.002697799584924"><ele>275.0</ele><time>2026-04-19T15:07:29Z</time></trkpt><trkpt lat="44.84207351649956" lon="9.002628409421908"><ele>276.5</ele><time>2026-04-19T15:07:30Z</time></trkpt><trkpt lat="44.84216476239813" lon="9.002521525691332"><ele>278.0</ele><time>2026-04-19T15:07:32Z</time></trkpt><trkpt lat="44.842216077757136" lon="9.00246921022534"><ele>279.6666666666667</ele><time>2026-04-19T15:07:33Z</time></trkpt><trkpt lat="44.84227035464357" lon="9.002407048278204"><ele>281.33333333333337</ele><time>2026-04-19T15:07:34Z</time></trkpt><trkpt lat="44.84235175620769" lon="9.002277419152481"><ele>283.0</ele><time>2026-04-19T15:07:36Z</time></trkpt><trkpt lat="44.842397015604" lon="9.002193728675145"><ele>284.6666666666667</ele><time>2026-04-19T15:07:37Z</time></trkpt><trkpt lat="44.84243862831636" lon="9.0021107911319"><ele>286.3333333333333</ele><time>2026-04-19T15:07:38Z</time></trkpt><trkpt lat="44.84248049485164" lon="9.002030699457427"><ele>288.0</ele><time>2026-04-19T15:07:39Z</time></trkpt><trkpt lat="44.842515771582384" lon="9.001954540661075"><ele>288.0</ele><time>2026-04-19T15:07:40Z</time></trkpt><trkpt lat="44.84255603143852" lon="9.001797335689744"><ele>288.0</ele><time>2026-04-19T15:07:42Z</time></trkpt><trkpt lat="44.842582136914864" lon="9.001714978170297"><ele>288.0</ele><time>2026-04-19T15:07:43Z</time></trkpt><trkpt lat="44.84266375134548" lon="9.00160932246844"><ele>288.0</ele><time>2026-04-19T15:07:45Z</time></trkpt><trkpt lat="44.84274084705617" lon="9.001646133791787"><ele>288.0</ele><time>2026-04-19T15:07:47Z</time></trkpt><trkpt lat="44.84273418268908" lon="9.001780684518552"><ele>288.0</ele><time>2026-04-19T15:07:50Z</time></trkpt><trkpt lat="44.84269261590417" lon="9.001853320697853"><ele>288.0</ele><time>2026-04-19T15:07:51Z</time></trkpt><trkpt lat="44.84264218783074" lon="9.001915009132682"><ele>288.0</ele><time>2026-04-19T15:07:52Z</time></trkpt><trkpt lat="44.842548433150284" lon="9.002020786626726"><ele>288.0</ele><time>2026-04-19T15:07:54Z</time></trkpt><trkpt lat="44.84251136988909" lon="9.00214300231165"><ele>288.0</ele><time>2026-04-19T15:07:56Z</time></trkpt><trkpt lat="44.842532031098735" lon="9.002231088155849"><ele>288.0</ele><time>2026-04-19T15:07:58Z</time></trkpt><trkpt lat="44.842576283405684" lon="9.002473412187435"><ele>288.1666666666667</ele><time>2026-04-19T15:08:00Z</time></trkpt><trkpt lat="44.8426447413965" lon="9.002485837429814"><ele>288.3333333333333</ele><time>2026-04-19T15:08:02Z</time></trkpt><trkpt lat="44.842693669263916" lon="9.002388333261225"><ele>288.5</ele><time>2026-04-19T15:08:03.999Z</time></trkpt><trkpt lat="44.84268073503239" lon="9.00226874945526"><ele>288.66666666666663</ele><time>2026-04-19T15:08:05.999Z</time></trkpt><trkpt lat="44.84265018025494" lon="9.002116168768223"><ele>288.8333333333333</ele><time>2026-04-19T15:08:07.999Z</time></trkpt><trkpt lat="44.84267183573263" lon="9.00198308927809"><ele>289.0</ele><time>2026-04-19T15:08:09.999Z</time></trkpt><trkpt lat="44.84275280538076" lon="9.001937156229003"><ele>289.0</ele><time>2026-04-19T15:08:11.999Z</time></trkpt><trkpt lat="44.842792391147675" lon="9.002056190710436"><ele>289.0</ele><time>2026-04-19T15:08:22.999Z</time></trkpt><trkpt lat="44.84277284340083" lon="9.002202364679137"><ele>289.0</ele><time>2026-04-19T15:08:24.999Z</time></trkpt><trkpt lat="44.84275557764886" lon="9.002372316121797"><ele>289.0</ele><time>2026-04-19T15:08:26.999Z</time></trkpt><trkpt lat="44.84276462430748" lon="9.002467876385856"><ele>289.0</ele><time>2026-04-19T15:08:27.999Z</time></trkpt><trkpt lat="44.84278237161437" lon="9.002628666483236"><ele>286.8</ele><time>2026-04-19T15:08:29.999Z</time></trkpt><trkpt lat="44.84276968389485" lon="9.002802661722736"><ele>284.59999999999997</ele><time>2026-04-19T15:08:31.999Z</time></trkpt><trkpt lat="44.84274896422553" lon="9.002889083737069"><ele>282.4</ele><time>2026-04-19T15:08:32.999Z</time></trkpt><trkpt lat="44.84269383398533" lon="9.00304194863811"><ele>280.2</ele><time>2026-04-19T15:08:34.999Z</time></trkpt><trkpt lat="44.842645154957324" lon="9.003113029738424"><ele>278.0</ele><time>2026-04-19T15:08:35.999Z</time></trkpt><trkpt lat="44.84257372905445" lon="9.003180605066838"><ele>278.0</ele><time>2026-04-19T15:08:36.999Z</time></trkpt><trkpt lat="44.8425024820408" lon="9.00324380259315"><ele>278.0</ele><time>2026-04-19T15:08:37.999Z</time></trkpt><trkpt lat="44.842437909272036" lon="9.00328615367771"><ele>278.0</ele><time>2026-04-19T15:08:38.999Z</time></trkpt><trkpt lat="44.842351646329995" lon="9.003280504926582"><ele>278.0</ele><time>2026-04-19T15:08:40.999Z</time></trkpt><trkpt lat="44.84235137058622" lon="9.003150533437823"><ele>278.0</ele><time>2026-04-19T15:08:42.999Z</time></trkpt><trkpt lat="44.84244645862988" lon="9.003047187513479"><ele>278.0</ele><time>2026-04-19T15:08:44.998Z</time></trkpt><trkpt lat="44.84253380665918" lon="9.002986157712407"><ele>278.0</ele><time>2026-04-19T15:08:46.998Z</time></trkpt><trkpt lat="44.842623530316196" lon="9.0028966937221"><ele>278.0</ele><time>2026-04-19T15:08:48.998Z</time></trkpt><trkpt lat="44.84266459386938" lon="9.002825340935875"><ele>278.0</ele><time>2026-04-19T15:08:49.998Z</time></trkpt><trkpt lat="44.84262911633317" lon="9.002660331297252"><ele>278.0</ele><time>2026-04-19T15:08:51.998Z</time></trkpt><trkpt lat="44.842565426829594" lon="9.002604094264994"><ele>278.0</ele><time>2026-04-19T15:08:52.998Z</time></trkpt><trkpt lat="44.8424921803596" lon="9.002640092632491"><ele>278.0</ele><time>2026-04-19T15:08:57.998Z</time></trkpt><trkpt lat="44.84243667800385" lon="9.002761521536941"><ele>278.0</ele><time>2026-04-19T15:08:59.998Z</time></trkpt><trkpt lat="44.84240483370541" lon="9.00285716552528"><ele>278.0</ele><time>2026-04-19T15:09:01.998Z</time></trkpt><trkpt lat="44.84236857191941" lon="9.002978889937001"><ele>278.0</ele><time>2026-04-19T15:09:03.998Z</time></trkpt><trkpt lat="44.84232796828521" lon="9.00312370367144"><ele>278.0</ele><time>2026-04-19T15:09:05.998Z</time></trkpt><trkpt lat="44.842272366503124" lon="9.003261814197868"><ele>278.0</ele><time>2026-04-19T15:09:07.998Z</time></trkpt><trkpt lat="44.8421705330802" lon="9.003372302680281"><ele>278.0</ele><time>2026-04-19T15:09:09.998Z</time></trkpt><trkpt lat="44.842084750312374" lon="9.00345931041258"><ele>278.0</ele><time>2026-04-19T15:09:12.001Z</time></trkpt><trkpt lat="44.842061771656155" lon="9.00358526685662"><ele>278.0</ele><time>2026-04-19T15:09:14.001Z</time></trkpt><trkpt lat="44.841985287134776" lon="9.00359891460404"><ele>275.6</ele><time>2026-04-19T15:09:18.001Z</time></trkpt><trkpt lat="44.84193096974274" lon="9.003495728649556"><ele>273.20000000000005</ele><time>2026-04-19T15:09:23.001Z</time></trkpt><trkpt lat="44.84187905955923" lon="9.003440558730937"><ele>270.8</ele><time>2026-04-19T15:09:25.001Z</time></trkpt><trkpt lat="44.84180096301867" lon="9.003500267647969"><ele>268.40000000000003</ele><time>2026-04-19T15:09:28.001Z</time></trkpt><trkpt lat="44.84173236652092" lon="9.00361909454441"><ele>266.0</ele><time>2026-04-19T15:09:30.001Z</time></trkpt><trkpt lat="44.841644851068445" lon="9.003682241429452"><ele>265.33333333333337</ele><time>2026-04-19T15:09:32Z</time></trkpt><trkpt lat="44.841581833448075" lon="9.003736518951891"><ele>264.6666666666667</ele><time>2026-04-19T15:09:33Z</time></trkpt><trkpt lat="44.841529918651936" lon="9.003799087394638"><ele>264.0</ele><time>2026-04-19T15:09:34Z</time></trkpt><trkpt lat="44.841477263955326" lon="9.003865781561034"><ele>263.3333333333333</ele><time>2026-04-19T15:09:35Z</time></trkpt><trkpt lat="44.841400167098236" lon="9.003978129472067"><ele>262.66666666666663</ele><time>2026-04-19T15:09:37Z</time></trkpt><trkpt lat="44.84134098569551" lon="9.004103594272106"><ele>262.0</ele><time>2026-04-19T15:09:39Z</time></trkpt><trkpt lat="44.84129246287832" lon="9.004189187329914"><ele>261.8571428571429</ele><time>2026-04-19T15:09:41Z</time></trkpt><trkpt lat="44.84121405992621" lon="9.004222918084137"><ele>261.7142857142857</ele><time>2026-04-19T15:10:06Z</time></trkpt><trkpt lat="44.84119448377171" lon="9.004315405020993"><ele>261.57142857142856</ele><time>2026-04-19T15:10:07.999Z</time></trkpt><trkpt lat="44.84120847514756" lon="9.004426674942064"><ele>261.42857142857144</ele><time>2026-04-19T15:10:09.999Z</time></trkpt><trkpt lat="44.84118556832698" lon="9.004515847971055"><ele>261.2857142857143</ele><time>2026-04-19T15:10:11.999Z</time></trkpt><trkpt lat="44.841144476455646" lon="9.00459197443101"><ele>261.14285714285717</ele><time>2026-04-19T15:10:14.999Z</time></trkpt><trkpt lat="44.841099923219566" lon="9.004656251472934"><ele>261.0</ele><time>2026-04-19T15:10:17.999Z</time></trkpt><trkpt lat="44.8411104197522" lon="9.004779182201222"><ele>261.0</ele><time>2026-04-19T15:10:20.999Z</time></trkpt><trkpt lat="44.84117161724602" lon="9.004840506244802"><ele>261.0</ele><time>2026-04-19T15:10:24.999Z</time></trkpt><trkpt lat="44.8412341278316" lon="9.004822733822657"><ele>261.0</ele><time>2026-04-19T15:10:26.999Z</time></trkpt><trkpt lat="44.84129012800887" lon="9.004754508964266"><ele>261.0</ele><time>2026-04-19T15:10:28.999Z</time></trkpt><trkpt lat="44.84136853470669" lon="9.004674504715625"><ele>261.0</ele><time>2026-04-19T15:10:30.999Z</time></trkpt><trkpt lat="44.84144696269626" lon="9.004586452562505"><ele>261.0</ele><time>2026-04-19T15:10:32.999Z</time></trkpt><trkpt lat="44.841541271317" lon="9.004519563500734"><ele>261.0</ele><time>2026-04-19T15:10:34.999Z</time></trkpt><trkpt lat="44.841611044530396" lon="9.0044788438464"><ele>261.0</ele><time>2026-04-19T15:10:36.999Z</time></trkpt><trkpt lat="44.841667132529864" lon="9.004372666165926"><ele>261.0</ele><time>2026-04-19T15:11:31.001Z</time></trkpt><trkpt lat="44.84177068134728" lon="9.004310443607098"><ele>261.0</ele><time>2026-04-19T15:11:33.001Z</time></trkpt><trkpt lat="44.84189707366461" lon="9.004291431618627"><ele>261.0</ele><time>2026-04-19T15:11:35Z</time></trkpt><trkpt lat="44.84196044394558" lon="9.004291578838304"><ele>261.40000000000003</ele><time>2026-04-19T15:11:36Z</time></trkpt><trkpt lat="44.842065940886826" lon="9.004257752023411"><ele>261.8</ele><time>2026-04-19T15:11:38Z</time></trkpt><trkpt lat="44.84215715320623" lon="9.004251543030556"><ele>262.20000000000005</ele><time>2026-04-19T15:11:40Z</time></trkpt><trkpt lat="44.84221091033843" lon="9.004196396097434"><ele>262.6</ele><time>2026-04-19T15:11:42Z</time></trkpt><trkpt lat="44.84231472569789" lon="9.004124704028085"><ele>263.0</ele><time>2026-04-19T15:11:44Z</time></trkpt><trkpt lat="44.84238874524309" lon="9.004136017010898"><ele>263.6</ele><time>2026-04-19T15:11:45Z</time></trkpt><trkpt lat="44.8424827906316" lon="9.004135539781222"><ele>264.20000000000005</ele><time>2026-04-19T15:11:46Z</time></trkpt><trkpt lat="44.84258393081667" lon="9.004112616116752"><ele>264.8</ele><time>2026-04-19T15:11:47Z</time></trkpt><trkpt lat="44.8426745438904" lon="9.004068263082567"><ele>265.40000000000003</ele><time>2026-04-19T15:11:48Z</time></trkpt><trkpt lat="44.84275739481068" lon="9.004034028950095"><ele>266.0</ele><time>2026-04-19T15:11:49Z</time></trkpt><trkpt lat="44.84283372890617" lon="9.004004089242702"><ele>266.14285714285717</ele><time>2026-04-19T15:11:50Z</time></trkpt><trkpt lat="44.8428962371745" lon="9.003966745345759"><ele>266.2857142857143</ele><time>2026-04-19T15:11:52Z</time></trkpt><trkpt lat="44.842949667682895" lon="9.003910341336253"><ele>266.42857142857144</ele><time>2026-04-19T15:12:06Z</time></trkpt><trkpt lat="44.84299518113492" lon="9.003822004727413"><ele>266.57142857142856</ele><time>2026-04-19T15:12:09Z</time></trkpt><trkpt lat="44.843054480862854" lon="9.003776447717037"><ele>266.7142857142857</ele><time>2026-04-19T15:12:11.999Z</time></trkpt><trkpt lat="44.84311771715628" lon="9.003744964887128"><ele>266.8571428571429</ele><time>2026-04-19T15:12:13.999Z</time></trkpt><trkpt lat="44.843209512214564" lon="9.003784048696872"><ele>267.0</ele><time>2026-04-19T15:12:15.999Z</time></trkpt><trkpt lat="44.84332033112299" lon="9.003810191977188"><ele>267.0</ele><time>2026-04-19T15:12:17.999Z</time></trkpt><trkpt lat="44.843438590614035" lon="9.003849949633384"><ele>267.0</ele><time>2026-04-19T15:12:19.999Z</time></trkpt><trkpt lat="44.84352857952056" lon="9.003874436201036"><ele>267.0</ele><time>2026-04-19T15:12:21.999Z</time></trkpt><trkpt lat="44.843613062278116" lon="9.003883433525704"><ele>267.0</ele><time>2026-04-19T15:12:23.999Z</time></trkpt><trkpt lat="44.84371557681707" lon="9.003885614938017"><ele>267.0</ele><time>2026-04-19T15:12:26.999Z</time></trkpt><trkpt lat="44.843831554222064" lon="9.003871213396806"><ele>268.0</ele><time>2026-04-19T15:12:28.999Z</time></trkpt><trkpt lat="44.84395635466687" lon="9.003858112265632"><ele>269.0</ele><time>2026-04-19T15:12:30.999Z</time></trkpt><trkpt lat="44.84407571833874" lon="9.003854308016972"><ele>270.0</ele><time>2026-04-19T15:12:32.999Z</time></trkpt><trkpt lat="44.84419793407913" lon="9.003856126133577"><ele>271.0</ele><time>2026-04-19T15:12:34.999Z</time></trkpt><trkpt lat="44.84430039552485" lon="9.003844538169675"><ele>272.8</ele><time>2026-04-19T15:12:36.999Z</time></trkpt><trkpt lat="44.844363499168836" lon="9.003836098311771"><ele>274.6</ele><time>2026-04-19T15:12:37.999Z</time></trkpt><trkpt lat="44.84443258687404" lon="9.003843805762274"><ele>276.4</ele><time>2026-04-19T15:12:38.999Z</time></trkpt><trkpt lat="44.84456248152495" lon="9.003846178971502"><ele>278.2</ele><time>2026-04-19T15:12:40.999Z</time></trkpt><trkpt lat="44.84470534658095" lon="9.003858013423768"><ele>280.0</ele><time>2026-04-19T15:12:42.999Z</time></trkpt><trkpt lat="44.84481192166548" lon="9.003885069684356"><ele>280.0</ele><time>2026-04-19T15:12:43.999Z</time></trkpt><trkpt lat="44.844875941933935" lon="9.003870918902198"><ele>280.0</ele><time>2026-04-19T15:12:45.999Z</time></trkpt><trkpt lat="44.84497069435208" lon="9.003865997014675"><ele>280.0</ele><time>2026-04-19T15:12:47.999Z</time></trkpt><trkpt lat="44.84504882891777" lon="9.00387857376611"><ele>280.0</ele><time>2026-04-19T15:12:49.998Z</time></trkpt><trkpt lat="44.845118230237155" lon="9.003920296888314"><ele>280.0</ele><time>2026-04-19T15:12:51.998Z</time></trkpt><trkpt lat="44.845204301352936" lon="9.00394825691451"><ele>280.0</ele><time>2026-04-19T15:12:58.998Z</time></trkpt><trkpt lat="44.84528290510501" lon="9.003983624869125"><ele>282.5</ele><time>2026-04-19T15:13:02.998Z</time></trkpt><trkpt lat="44.845312188150324" lon="9.004064372999869"><ele>285.0</ele><time>2026-04-19T15:13:16.998Z</time></trkpt><trkpt lat="44.84533355073139" lon="9.004171391991292"><ele>287.5</ele><time>2026-04-19T15:13:18.998Z</time></trkpt><trkpt lat="44.84541688805009" lon="9.004126977778284"><ele>290.0</ele><time>2026-04-19T15:13:20.998Z</time></trkpt><trkpt lat="44.84549061658296" lon="9.004047790645636"><ele>292.5</ele><time>2026-04-19T15:13:23Z</time></trkpt><trkpt lat="44.845578650426845" lon="9.004008752434697"><ele>295.0</ele><time>2026-04-19T15:13:25Z</time></trkpt><trkpt lat="44.84566010145885" lon="9.0040212102999"><ele>295.28571428571433</ele><time>2026-04-19T15:13:27Z</time></trkpt><trkpt lat="44.845732086450624" lon="9.004013725990328"><ele>295.57142857142856</ele><time>2026-04-19T15:13:44Z</time></trkpt><trkpt lat="44.84580020086343" lon="9.003995532665808"><ele>295.8571428571429</ele><time>2026-04-19T15:13:47Z</time></trkpt><trkpt lat="44.84586964575607" lon="9.003972063140791"><ele>296.14285714285717</ele><time>2026-04-19T15:13:50Z</time></trkpt><trkpt lat="44.84580110195615" lon="9.003997535397886"><ele>296.42857142857144</ele><time>2026-04-19T15:14:19.999Z</time></trkpt><trkpt lat="44.845732575172164" lon="9.004006702843018"><ele>296.7142857142857</ele><time>2026-04-19T15:14:21.999Z</time></trkpt><trkpt lat="44.84566122901619" lon="9.004069078555583"><ele>297.0</ele><time>2026-04-19T15:14:24.999Z</time></trkpt><trkpt lat="44.84556945575619" lon="9.004145604767643"><ele>296.6666666666667</ele><time>2026-04-19T15:14:27.999Z</time></trkpt><trkpt lat="44.84551976963217" lon="9.004222718565096"><ele>296.3333333333333</ele><time>2026-04-19T15:14:29.999Z</time></trkpt><trkpt lat="44.84548821360861" lon="9.004324467592834"><ele>296.0</ele><time>2026-04-19T15:14:31.999Z</time></trkpt><trkpt lat="44.84548063080608" lon="9.004444723242866"><ele>295.66666666666663</ele><time>2026-04-19T15:14:33.999Z</time></trkpt><trkpt lat="44.845511089632566" lon="9.004553004275612"><ele>295.3333333333333</ele><time>2026-04-19T15:14:50.998Z</time></trkpt><trkpt lat="44.84555568427229" lon="9.00464402932824"><ele>295.0</ele><time>2026-04-19T15:14:52.998Z</time></trkpt><trkpt lat="44.84559084626652" lon="9.00472852111787"><ele>295.0</ele><time>2026-04-19T15:14:53.998Z</time></trkpt><trkpt lat="44.84562819733164" lon="9.004819473431501"><ele>295.0</ele><time>2026-04-19T15:14:55.998Z</time></trkpt><trkpt lat="44.845661348567276" lon="9.004925748719996"><ele>295.0</ele><time>2026-04-19T15:14:57.998Z</time></trkpt><trkpt lat="44.845692548989646" lon="9.005046657308942"><ele>295.0</ele><time>2026-04-19T15:14:59.998Z</time></trkpt><trkpt lat="44.84573904670931" lon="9.005163009780466"><ele>295.0</ele><time>2026-04-19T15:15:02.998Z</time></trkpt><trkpt lat="44.84575806691262" lon="9.005270302771025"><ele>295.0</ele><time>2026-04-19T15:15:05.998Z</time></trkpt><trkpt lat="44.84583556566791" lon="9.005336663256756"><ele>294.8</ele><time>2026-04-19T15:15:07.998Z</time></trkpt><trkpt lat="44.845882849023184" lon="9.005444989366287"><ele>294.6</ele><time>2026-04-19T15:15:10.998Z</time></trkpt><trkpt lat="44.84592926318672" lon="9.005583311537215"><ele>294.4</ele><time>2026-04-19T15:15:12.998Z</time></trkpt><trkpt lat="44.84597471475815" lon="9.00570873571438"><ele>294.2</ele><time>2026-04-19T15:15:14.998Z</time></trkpt><trkpt lat="44.84601965218322" lon="9.005818524629658"><ele>294.0</ele><time>2026-04-19T15:15:16.998Z</time></trkpt><trkpt lat="44.846063504309754" lon="9.005942408054699"><ele>294.6666666666667</ele><time>2026-04-19T15:15:18.998Z</time></trkpt><trkpt lat="44.84610548856728" lon="9.006056796845817"><ele>295.3333333333333</ele><time>2026-04-19T15:15:20.998Z</time></trkpt><trkpt lat="44.84612859639804" lon="9.006155858927963"><ele>296.0</ele><time>2026-04-19T15:15:22.998Z</time></trkpt><trkpt lat="44.846166356647075" lon="9.006247145995419"><ele>296.66666666666663</ele><time>2026-04-19T15:15:24.998Z</time></trkpt><trkpt lat="44.84618658019277" lon="9.006345512062182"><ele>297.3333333333333</ele><time>2026-04-19T15:15:26.998Z</time></trkpt><trkpt lat="44.84619881268896" lon="9.006458998259433"><ele>298.0</ele><time>2026-04-19T15:15:30Z</time></trkpt><trkpt lat="44.84623249285134" lon="9.006580860854317"><ele>297.5</ele><time>2026-04-19T15:15:33Z</time></trkpt><trkpt lat="44.84626715320391" lon="9.00667597929198"><ele>297.0</ele><time>2026-04-19T15:15:35.001Z</time></trkpt><trkpt lat="44.8462742513827" lon="9.006782146906113"><ele>296.5</ele><time>2026-04-19T15:15:37Z</time></trkpt><trkpt lat="44.846291950739285" lon="9.006904837764182"><ele>296.0</ele><time>2026-04-19T15:15:45Z</time></trkpt><trkpt lat="44.846304698233546" lon="9.006995168868507"><ele>295.5</ele><time>2026-04-19T15:15:47Z</time></trkpt><trkpt lat="44.8463337430695" lon="9.007091362724001"><ele>295.0</ele><time>2026-04-19T15:15:48Z</time></trkpt><trkpt lat="44.84635781577917" lon="9.007215884174222"><ele>295.0</ele><time>2026-04-19T15:15:50Z</time></trkpt><trkpt lat="44.846357011529065" lon="9.0073346732384"><ele>295.0</ele><time>2026-04-19T15:15:52Z</time></trkpt><trkpt lat="44.846372732276784" lon="9.00744836886625"><ele>295.0</ele><time>2026-04-19T15:15:54Z</time></trkpt><trkpt lat="44.84643259777083" lon="9.007541286511207"><ele>295.0</ele><time>2026-04-19T15:15:57Z</time></trkpt><trkpt lat="44.84647968643958" lon="9.00765817326209"><ele>295.0</ele><time>2026-04-19T15:15:59Z</time></trkpt><trkpt lat="44.84650143957988" lon="9.007758804269459"><ele>295.0</ele><time>2026-04-19T15:16:01Z</time></trkpt><trkpt lat="44.846551960291" lon="9.00784611338143"><ele>293.7142857142857</ele><time>2026-04-19T15:16:19Z</time></trkpt><trkpt lat="44.84658913077515" lon="9.007947002877351"><ele>292.42857142857144</ele><time>2026-04-19T15:16:21.999Z</time></trkpt><trkpt lat="44.846623163809625" lon="9.008026090289638"><ele>291.1428571428571</ele><time>2026-04-19T15:16:23.999Z</time></trkpt><trkpt lat="44.846670711568926" lon="9.008109580348973"><ele>289.8571428571429</ele><time>2026-04-19T15:16:27.999Z</time></trkpt><trkpt lat="44.84670473336077" lon="9.008194262592212"><ele>288.57142857142856</ele><time>2026-04-19T15:16:33.999Z</time></trkpt><trkpt lat="44.846748678146575" lon="9.008274984060032"><ele>287.2857142857143</ele><time>2026-04-19T15:16:37.999Z</time></trkpt><trkpt lat="44.84680063998954" lon="9.00835307834696"><ele>286.0</ele><time>2026-04-19T15:16:39.999Z</time></trkpt><trkpt lat="44.84684353304639" lon="9.008425394487881"><ele>282.3333333333333</ele><time>2026-04-19T15:16:41.999Z</time></trkpt><trkpt lat="44.84690599813597" lon="9.008516763756239"><ele>278.66666666666663</ele><time>2026-04-19T15:16:43.999Z</time></trkpt><trkpt lat="44.846943134810196" lon="9.008638812724222"><ele>275.0</ele><time>2026-04-19T15:16:46.999Z</time></trkpt><trkpt lat="44.846985426268475" lon="9.008714606245006"><ele>271.3333333333333</ele><time>2026-04-19T15:16:48.999Z</time></trkpt><trkpt lat="44.84705984995118" lon="9.00878459441327"><ele>267.6666666666667</ele><time>2026-04-19T15:16:51.999Z</time></trkpt><trkpt lat="44.847117345660074" lon="9.00885834728471"><ele>264.0</ele><time>2026-04-19T15:16:53.999Z</time></trkpt><trkpt lat="44.8471728457026" lon="9.008945788556067"><ele>264.0</ele><time>2026-04-19T15:16:55.999Z</time></trkpt><trkpt lat="44.8472321957271" lon="9.009078307566996"><ele>264.0</ele><time>2026-04-19T15:16:57.999Z</time></trkpt><trkpt lat="44.84729310504317" lon="9.00917862594658"><ele>264.0</ele><time>2026-04-19T15:16:59.998Z</time></trkpt><trkpt lat="44.84732398314671" lon="9.00930921955847"><ele>264.0</ele><time>2026-04-19T15:17:01.998Z</time></trkpt><trkpt lat="44.847335202561865" lon="9.009480203050854"><ele>264.0</ele><time>2026-04-19T15:17:03.998Z</time></trkpt><trkpt lat="44.84734963007572" lon="9.009616367333638"><ele>261.2</ele><time>2026-04-19T15:17:05.997Z</time></trkpt><trkpt lat="44.84736288689548" lon="9.009712555365226"><ele>258.4</ele><time>2026-04-19T15:17:06.997Z</time></trkpt><trkpt lat="44.847421281193675" lon="9.009864776487953"><ele>255.6</ele><time>2026-04-19T15:17:08.997Z</time></trkpt><trkpt lat="44.847499215788844" lon="9.009943278692129"><ele>252.8</ele><time>2026-04-19T15:17:10.997Z</time></trkpt><trkpt lat="44.84757275181121" lon="9.009980324506925"><ele>250.0</ele><time>2026-04-19T15:17:12.997Z</time></trkpt><trkpt lat="44.847657632500955" lon="9.009989619440729"><ele>246.8</ele><time>2026-04-19T15:17:14.997Z</time></trkpt><trkpt lat="44.84778006135473" lon="9.009939951100295"><ele>243.6</ele><time>2026-04-19T15:17:16.997Z</time></trkpt><trkpt lat="44.84790854561459" lon="9.00993833664553"><ele>240.39999999999998</ele><time>2026-04-19T15:17:18.997Z</time></trkpt><trkpt lat="44.84797140391592" lon="9.009950864511366"><ele>237.2</ele><time>2026-04-19T15:17:19.997Z</time></trkpt><trkpt lat="44.84804573439533" lon="9.00996323117304"><ele>234.0</ele><time>2026-04-19T15:17:20.997Z</time></trkpt><trkpt lat="44.848130659066214" lon="9.0099673721246"><ele>234.0</ele><time>2026-04-19T15:17:21.997Z</time></trkpt><trkpt lat="44.848211411055395" lon="9.009973094500355"><ele>234.0</ele><time>2026-04-19T15:17:22.997Z</time></trkpt><trkpt lat="44.84828685248759" lon="9.0099830601564"><ele>234.0</ele><time>2026-04-19T15:17:23.997Z</time></trkpt><trkpt lat="44.848355219124855" lon="9.009992161765874"><ele>235.0</ele><time>2026-04-19T15:17:24.997Z</time></trkpt><trkpt lat="44.84846986956961" lon="9.010007214719325"><ele>230.0</ele><time>2026-04-19T15:17:26.997Z</time></trkpt><trkpt lat="44.8485616333622" lon="9.010024598365654"><ele>230.0</ele><time>2026-04-19T15:17:28.997Z</time></trkpt></trkseg></trk></gpx>